<?xml version="1.0" encoding="UTF-8" standalone="no" ?>
<gpx xmlns="http://www.topografix.com/GPX/1/1" xmlns:xsi="http://www.w3.org/2001/XMLSchema-instance" xsi:schemaLocation="http://www.topografix.com/GPX/1/1 http://www.topografix.com/GPX/1/1/gpx.xsd" version="1.1" creator="VisuGPX - https://www.visugpx.com">
  <metadata>
    <name>Bourg-de-Visa - A la découverte du Bugat - 11. 3 km</name>
  </metadata>
  <trk>
    <name><![CDATA[Bourg-de-Visa - A la découverte du Bugat - 11. 3 km]]></name>
    <extensions>
      <line xmlns="http://www.topografix.com/GPX/gpx_style/0/2">
        <color>0000FF</color>
        <width>4</width>
      </line>
    </extensions>
    <trkseg>
      <trkpt lat="44.26192" lon="0.95779">
        <ele>224.1</ele>
        <time>2022-08-28T09:11:39+02:00</time>
      </trkpt>
      <trkpt lat="44.26193" lon="0.9576">
        <ele>223.1</ele>
        <time>2022-08-28T09:11:53+02:00</time>
      </trkpt>
      <trkpt lat="44.26193" lon="0.95741">
        <ele>222</ele>
        <time>2022-08-28T09:12:11+02:00</time>
      </trkpt>
      <trkpt lat="44.26191" lon="0.9572">
        <ele>220.7</ele>
        <time>2022-08-28T09:12:28+02:00</time>
      </trkpt>
      <trkpt lat="44.26191" lon="0.95701">
        <ele>219.6</ele>
        <time>2022-08-28T09:12:39+02:00</time>
      </trkpt>
      <trkpt lat="44.26195" lon="0.95682">
        <ele>218.6</ele>
        <time>2022-08-28T09:12:50+02:00</time>
      </trkpt>
      <trkpt lat="44.26201" lon="0.95665">
        <ele>217.7</ele>
        <time>2022-08-28T09:13:02+02:00</time>
      </trkpt>
      <trkpt lat="44.26207" lon="0.95646">
        <ele>216.7</ele>
        <time>2022-08-28T09:13:13+02:00</time>
      </trkpt>
      <trkpt lat="44.2621" lon="0.95628">
        <ele>215.7</ele>
        <time>2022-08-28T09:13:26+02:00</time>
      </trkpt>
      <trkpt lat="44.26201" lon="0.95613">
        <ele>214.6</ele>
        <time>2022-08-28T09:13:50+02:00</time>
      </trkpt>
      <trkpt lat="44.2619" lon="0.95599">
        <ele>213.5</ele>
        <time>2022-08-28T09:14:09+02:00</time>
      </trkpt>
      <trkpt lat="44.26182" lon="0.95583">
        <ele>212.4</ele>
        <time>2022-08-28T09:14:22+02:00</time>
      </trkpt>
      <trkpt lat="44.26175" lon="0.95567">
        <ele>212.2</ele>
        <time>2022-08-28T09:14:34+02:00</time>
      </trkpt>
      <trkpt lat="44.26166" lon="0.95551">
        <ele>212</ele>
        <time>2022-08-28T09:14:47+02:00</time>
      </trkpt>
      <trkpt lat="44.26168" lon="0.95532">
        <ele>212</ele>
        <time>2022-08-28T09:14:59+02:00</time>
      </trkpt>
      <trkpt lat="44.26173" lon="0.95514">
        <ele>212</ele>
        <time>2022-08-28T09:15:09+02:00</time>
      </trkpt>
      <trkpt lat="44.2617" lon="0.95495">
        <ele>212.1</ele>
        <time>2022-08-28T09:15:20+02:00</time>
      </trkpt>
      <trkpt lat="44.26169" lon="0.95475">
        <ele>212.6</ele>
        <time>2022-08-28T09:15:31+02:00</time>
      </trkpt>
      <trkpt lat="44.26168" lon="0.95455">
        <ele>213</ele>
        <time>2022-08-28T09:15:47+02:00</time>
      </trkpt>
      <trkpt lat="44.26169" lon="0.95435">
        <ele>213.5</ele>
        <time>2022-08-28T09:16:01+02:00</time>
      </trkpt>
      <trkpt lat="44.26172" lon="0.95397">
        <ele>214.7</ele>
        <time>2022-08-28T09:16:26+02:00</time>
      </trkpt>
      <trkpt lat="44.26174" lon="0.95377">
        <ele>215.6</ele>
        <time>2022-08-28T09:16:37+02:00</time>
      </trkpt>
      <trkpt lat="44.26177" lon="0.95358">
        <ele>216.3</ele>
        <time>2022-08-28T09:16:49+02:00</time>
      </trkpt>
      <trkpt lat="44.2618" lon="0.95338">
        <ele>217.1</ele>
        <time>2022-08-28T09:17:02+02:00</time>
      </trkpt>
      <trkpt lat="44.26181" lon="0.95318">
        <ele>217.7</ele>
        <time>2022-08-28T09:17:13+02:00</time>
      </trkpt>
      <trkpt lat="44.26187" lon="0.953">
        <ele>217.9</ele>
        <time>2022-08-28T09:17:24+02:00</time>
      </trkpt>
      <trkpt lat="44.26188" lon="0.95281">
        <ele>218.4</ele>
        <time>2022-08-28T09:17:34+02:00</time>
      </trkpt>
      <trkpt lat="44.26188" lon="0.95261">
        <ele>218.9</ele>
        <time>2022-08-28T09:17:48+02:00</time>
      </trkpt>
      <trkpt lat="44.26191" lon="0.95242">
        <ele>219.2</ele>
        <time>2022-08-28T09:18:01+02:00</time>
      </trkpt>
      <trkpt lat="44.26196" lon="0.95222">
        <ele>219.4</ele>
        <time>2022-08-28T09:18:12+02:00</time>
      </trkpt>
      <trkpt lat="44.26202" lon="0.95203">
        <ele>219.5</ele>
        <time>2022-08-28T09:18:24+02:00</time>
      </trkpt>
      <trkpt lat="44.26206" lon="0.95184">
        <ele>219.8</ele>
        <time>2022-08-28T09:18:33+02:00</time>
      </trkpt>
      <trkpt lat="44.26211" lon="0.95166">
        <ele>219.9</ele>
        <time>2022-08-28T09:18:44+02:00</time>
      </trkpt>
      <trkpt lat="44.26212" lon="0.95147">
        <ele>219.5</ele>
        <time>2022-08-28T09:18:58+02:00</time>
      </trkpt>
      <trkpt lat="44.26213" lon="0.95127">
        <ele>219</ele>
        <time>2022-08-28T09:19:13+02:00</time>
      </trkpt>
      <trkpt lat="44.26217" lon="0.95109">
        <ele>218.7</ele>
        <time>2022-08-28T09:19:28+02:00</time>
      </trkpt>
      <trkpt lat="44.26219" lon="0.9509">
        <ele>218.4</ele>
        <time>2022-08-28T09:19:38+02:00</time>
      </trkpt>
      <trkpt lat="44.26223" lon="0.95071">
        <ele>218</ele>
        <time>2022-08-28T09:19:48+02:00</time>
      </trkpt>
      <trkpt lat="44.26229" lon="0.95053">
        <ele>217.5</ele>
        <time>2022-08-28T09:19:57+02:00</time>
      </trkpt>
      <trkpt lat="44.26235" lon="0.95035">
        <ele>217</ele>
        <time>2022-08-28T09:20:06+02:00</time>
      </trkpt>
      <trkpt lat="44.26242" lon="0.95019">
        <ele>216.6</ele>
        <time>2022-08-28T09:20:15+02:00</time>
      </trkpt>
      <trkpt lat="44.2625" lon="0.95002">
        <ele>216.1</ele>
        <time>2022-08-28T09:20:26+02:00</time>
      </trkpt>
      <trkpt lat="44.26253" lon="0.94984">
        <ele>215.1</ele>
        <time>2022-08-28T09:20:49+02:00</time>
      </trkpt>
      <trkpt lat="44.26254" lon="0.94964">
        <ele>214</ele>
        <time>2022-08-28T09:21:03+02:00</time>
      </trkpt>
      <trkpt lat="44.26259" lon="0.94946">
        <ele>213.2</ele>
        <time>2022-08-28T09:21:26+02:00</time>
      </trkpt>
      <trkpt lat="44.26254" lon="0.94927">
        <ele>211.8</ele>
        <time>2022-08-28T09:21:38+02:00</time>
      </trkpt>
      <trkpt lat="44.26251" lon="0.94907">
        <ele>210.4</ele>
        <time>2022-08-28T09:21:51+02:00</time>
      </trkpt>
      <trkpt lat="44.26255" lon="0.94888">
        <ele>209.2</ele>
        <time>2022-08-28T09:22:02+02:00</time>
      </trkpt>
      <trkpt lat="44.26256" lon="0.94869">
        <ele>207.8</ele>
        <time>2022-08-28T09:22:15+02:00</time>
      </trkpt>
      <trkpt lat="44.26254" lon="0.94849">
        <ele>206.2</ele>
        <time>2022-08-28T09:22:27+02:00</time>
      </trkpt>
      <trkpt lat="44.26258" lon="0.94831">
        <ele>205.2</ele>
        <time>2022-08-28T09:22:39+02:00</time>
      </trkpt>
      <trkpt lat="44.26264" lon="0.94809">
        <ele>205.6</ele>
        <time>2022-08-28T09:22:56+02:00</time>
      </trkpt>
      <trkpt lat="44.26268" lon="0.94791">
        <ele>205.8</ele>
        <time>2022-08-28T09:23:01+02:00</time>
      </trkpt>
      <trkpt lat="44.26269" lon="0.9477">
        <ele>205.9</ele>
        <time>2022-08-28T09:23:13+02:00</time>
      </trkpt>
      <trkpt lat="44.2627" lon="0.9475">
        <ele>206.1</ele>
        <time>2022-08-28T09:23:27+02:00</time>
      </trkpt>
      <trkpt lat="44.2627" lon="0.94731">
        <ele>207.1</ele>
        <time>2022-08-28T09:23:44+02:00</time>
      </trkpt>
      <trkpt lat="44.26271" lon="0.94711">
        <ele>208.2</ele>
        <time>2022-08-28T09:23:56+02:00</time>
      </trkpt>
      <trkpt lat="44.26271" lon="0.94691">
        <ele>209.3</ele>
        <time>2022-08-28T09:24:14+02:00</time>
      </trkpt>
      <trkpt lat="44.26272" lon="0.94652">
        <ele>210.7</ele>
        <time>2022-08-28T09:24:37+02:00</time>
      </trkpt>
      <trkpt lat="44.26274" lon="0.94632">
        <ele>210.7</ele>
        <time>2022-08-28T09:24:53+02:00</time>
      </trkpt>
      <trkpt lat="44.2627" lon="0.94613">
        <ele>210.9</ele>
        <time>2022-08-28T09:25:11+02:00</time>
      </trkpt>
      <trkpt lat="44.26268" lon="0.94594">
        <ele>211</ele>
        <time>2022-08-28T09:25:23+02:00</time>
      </trkpt>
      <trkpt lat="44.26268" lon="0.94575">
        <ele>210.6</ele>
        <time>2022-08-28T09:25:35+02:00</time>
      </trkpt>
      <trkpt lat="44.26262" lon="0.94558">
        <ele>209.6</ele>
        <time>2022-08-28T09:25:49+02:00</time>
      </trkpt>
      <trkpt lat="44.26261" lon="0.94538">
        <ele>208.6</ele>
        <time>2022-08-28T09:26:05+02:00</time>
      </trkpt>
      <trkpt lat="44.26264" lon="0.94518">
        <ele>207.5</ele>
        <time>2022-08-28T09:26:19+02:00</time>
      </trkpt>
      <trkpt lat="44.26264" lon="0.94499">
        <ele>206.5</ele>
        <time>2022-08-28T09:26:34+02:00</time>
      </trkpt>
      <trkpt lat="44.26261" lon="0.94479">
        <ele>206.8</ele>
        <time>2022-08-28T09:26:44+02:00</time>
      </trkpt>
      <trkpt lat="44.2626" lon="0.94459">
        <ele>207</ele>
        <time>2022-08-28T09:26:52+02:00</time>
      </trkpt>
      <trkpt lat="44.26264" lon="0.9444">
        <ele>207</ele>
        <time>2022-08-28T09:27:00+02:00</time>
      </trkpt>
      <trkpt lat="44.26263" lon="0.94421">
        <ele>207.2</ele>
        <time>2022-08-28T09:27:08+02:00</time>
      </trkpt>
      <trkpt lat="44.26257" lon="0.94404">
        <ele>207.9</ele>
        <time>2022-08-28T09:27:16+02:00</time>
      </trkpt>
      <trkpt lat="44.2625" lon="0.94387">
        <ele>208.7</ele>
        <time>2022-08-28T09:27:32+02:00</time>
      </trkpt>
      <trkpt lat="44.26251" lon="0.94367">
        <ele>209.1</ele>
        <time>2022-08-28T09:27:44+02:00</time>
      </trkpt>
      <trkpt lat="44.26251" lon="0.94348">
        <ele>209.6</ele>
        <time>2022-08-28T09:28:00+02:00</time>
      </trkpt>
      <trkpt lat="44.2625" lon="0.94327">
        <ele>210</ele>
        <time>2022-08-28T09:28:21+02:00</time>
      </trkpt>
      <trkpt lat="44.26243" lon="0.9431">
        <ele>210.8</ele>
        <time>2022-08-28T09:28:28+02:00</time>
      </trkpt>
      <trkpt lat="44.26239" lon="0.94291">
        <ele>211.2</ele>
        <time>2022-08-28T09:28:40+02:00</time>
      </trkpt>
      <trkpt lat="44.26234" lon="0.94273">
        <ele>211.6</ele>
        <time>2022-08-28T09:28:56+02:00</time>
      </trkpt>
      <trkpt lat="44.26237" lon="0.94254">
        <ele>211.6</ele>
        <time>2022-08-28T09:29:10+02:00</time>
      </trkpt>
      <trkpt lat="44.26239" lon="0.94235">
        <ele>212.7</ele>
        <time>2022-08-28T09:29:28+02:00</time>
      </trkpt>
      <trkpt lat="44.26235" lon="0.94216">
        <ele>214.2</ele>
        <time>2022-08-28T09:29:36+02:00</time>
      </trkpt>
      <trkpt lat="44.26232" lon="0.94197">
        <ele>215.6</ele>
        <time>2022-08-28T09:29:50+02:00</time>
      </trkpt>
      <trkpt lat="44.26234" lon="0.94178">
        <ele>217</ele>
        <time>2022-08-28T09:30:04+02:00</time>
      </trkpt>
      <trkpt lat="44.26232" lon="0.94159">
        <ele>218.6</ele>
        <time>2022-08-28T09:30:15+02:00</time>
      </trkpt>
      <trkpt lat="44.26241" lon="0.94143">
        <ele>220.4</ele>
        <time>2022-08-28T09:30:34+02:00</time>
      </trkpt>
      <trkpt lat="44.2626" lon="0.94115">
        <ele>223.3</ele>
        <time>2022-08-28T09:31:03+02:00</time>
      </trkpt>
      <trkpt lat="44.26271" lon="0.94104">
        <ele>224.1</ele>
        <time>2022-08-28T09:31:21+02:00</time>
      </trkpt>
      <trkpt lat="44.26276" lon="0.94086">
        <ele>225.8</ele>
        <time>2022-08-28T09:31:35+02:00</time>
      </trkpt>
      <trkpt lat="44.26286" lon="0.94071">
        <ele>225.9</ele>
        <time>2022-08-28T09:31:44+02:00</time>
      </trkpt>
      <trkpt lat="44.26298" lon="0.94059">
        <ele>225.8</ele>
        <time>2022-08-28T09:31:49+02:00</time>
      </trkpt>
      <trkpt lat="44.26311" lon="0.94053">
        <ele>225.6</ele>
        <time>2022-08-28T09:32:39+02:00</time>
      </trkpt>
      <trkpt lat="44.26311" lon="0.94033">
        <ele>226.1</ele>
        <time>2022-08-28T09:34:03+02:00</time>
      </trkpt>
      <trkpt lat="44.26316" lon="0.94015">
        <ele>226.6</ele>
        <time>2022-08-28T09:34:15+02:00</time>
      </trkpt>
      <trkpt lat="44.26315" lon="0.93994">
        <ele>226.9</ele>
        <time>2022-08-28T09:34:25+02:00</time>
      </trkpt>
      <trkpt lat="44.2631" lon="0.93975">
        <ele>226.7</ele>
        <time>2022-08-28T09:34:35+02:00</time>
      </trkpt>
      <trkpt lat="44.26305" lon="0.93957">
        <ele>226.5</ele>
        <time>2022-08-28T09:34:45+02:00</time>
      </trkpt>
      <trkpt lat="44.26303" lon="0.93937">
        <ele>226.2</ele>
        <time>2022-08-28T09:34:55+02:00</time>
      </trkpt>
      <trkpt lat="44.26302" lon="0.93918">
        <ele>226</ele>
        <time>2022-08-28T09:35:05+02:00</time>
      </trkpt>
      <trkpt lat="44.26299" lon="0.93898">
        <ele>225.5</ele>
        <time>2022-08-28T09:35:17+02:00</time>
      </trkpt>
      <trkpt lat="44.26294" lon="0.93878">
        <ele>225.1</ele>
        <time>2022-08-28T09:35:27+02:00</time>
      </trkpt>
      <trkpt lat="44.26291" lon="0.9386">
        <ele>224.6</ele>
        <time>2022-08-28T09:35:37+02:00</time>
      </trkpt>
      <trkpt lat="44.26289" lon="0.9384">
        <ele>224.2</ele>
        <time>2022-08-28T09:35:47+02:00</time>
      </trkpt>
      <trkpt lat="44.26285" lon="0.93821">
        <ele>223.7</ele>
        <time>2022-08-28T09:35:58+02:00</time>
      </trkpt>
      <trkpt lat="44.26285" lon="0.93801">
        <ele>223.3</ele>
        <time>2022-08-28T09:36:09+02:00</time>
      </trkpt>
      <trkpt lat="44.26281" lon="0.93781">
        <ele>222.8</ele>
        <time>2022-08-28T09:36:19+02:00</time>
      </trkpt>
      <trkpt lat="44.26276" lon="0.93763">
        <ele>222.3</ele>
        <time>2022-08-28T09:36:30+02:00</time>
      </trkpt>
      <trkpt lat="44.26279" lon="0.93744">
        <ele>221.7</ele>
        <time>2022-08-28T09:36:41+02:00</time>
      </trkpt>
      <trkpt lat="44.26278" lon="0.93724">
        <ele>220.7</ele>
        <time>2022-08-28T09:36:51+02:00</time>
      </trkpt>
      <trkpt lat="44.26277" lon="0.93705">
        <ele>219.6</ele>
        <time>2022-08-28T09:37:02+02:00</time>
      </trkpt>
      <trkpt lat="44.26277" lon="0.93685">
        <ele>218.6</ele>
        <time>2022-08-28T09:37:15+02:00</time>
      </trkpt>
      <trkpt lat="44.26278" lon="0.93666">
        <ele>217.6</ele>
        <time>2022-08-28T09:37:23+02:00</time>
      </trkpt>
      <trkpt lat="44.26274" lon="0.93647">
        <ele>216</ele>
        <time>2022-08-28T09:37:37+02:00</time>
      </trkpt>
      <trkpt lat="44.26278" lon="0.93628">
        <ele>214.9</ele>
        <time>2022-08-28T09:37:49+02:00</time>
      </trkpt>
      <trkpt lat="44.26282" lon="0.9361">
        <ele>213.9</ele>
        <time>2022-08-28T09:37:58+02:00</time>
      </trkpt>
      <trkpt lat="44.26284" lon="0.9359">
        <ele>212.7</ele>
        <time>2022-08-28T09:38:08+02:00</time>
      </trkpt>
      <trkpt lat="44.26283" lon="0.9357">
        <ele>211.4</ele>
        <time>2022-08-28T09:38:18+02:00</time>
      </trkpt>
      <trkpt lat="44.26282" lon="0.93551">
        <ele>210.3</ele>
        <time>2022-08-28T09:38:29+02:00</time>
      </trkpt>
      <trkpt lat="44.2628" lon="0.93531">
        <ele>209.1</ele>
        <time>2022-08-28T09:38:41+02:00</time>
      </trkpt>
      <trkpt lat="44.26274" lon="0.93514">
        <ele>207.8</ele>
        <time>2022-08-28T09:38:51+02:00</time>
      </trkpt>
      <trkpt lat="44.26268" lon="0.93495">
        <ele>206.6</ele>
        <time>2022-08-28T09:39:05+02:00</time>
      </trkpt>
      <trkpt lat="44.26266" lon="0.93476">
        <ele>205.3</ele>
        <time>2022-08-28T09:39:18+02:00</time>
      </trkpt>
      <trkpt lat="44.26264" lon="0.93456">
        <ele>204</ele>
        <time>2022-08-28T09:39:34+02:00</time>
      </trkpt>
      <trkpt lat="44.2626" lon="0.93438">
        <ele>202.8</ele>
        <time>2022-08-28T09:39:46+02:00</time>
      </trkpt>
      <trkpt lat="44.26258" lon="0.93418">
        <ele>201.5</ele>
        <time>2022-08-28T09:39:58+02:00</time>
      </trkpt>
      <trkpt lat="44.26254" lon="0.934">
        <ele>201.1</ele>
        <time>2022-08-28T09:40:08+02:00</time>
      </trkpt>
      <trkpt lat="44.26249" lon="0.93381">
        <ele>200.6</ele>
        <time>2022-08-28T09:40:20+02:00</time>
      </trkpt>
      <trkpt lat="44.2624" lon="0.93365">
        <ele>200.5</ele>
        <time>2022-08-28T09:40:29+02:00</time>
      </trkpt>
      <trkpt lat="44.26228" lon="0.93355">
        <ele>200.4</ele>
        <time>2022-08-28T09:40:36+02:00</time>
      </trkpt>
      <trkpt lat="44.26215" lon="0.93347">
        <ele>200.2</ele>
        <time>2022-08-28T09:40:45+02:00</time>
      </trkpt>
      <trkpt lat="44.26201" lon="0.9334">
        <ele>199.8</ele>
        <time>2022-08-28T09:40:57+02:00</time>
      </trkpt>
      <trkpt lat="44.26187" lon="0.93338">
        <ele>199.6</ele>
        <time>2022-08-28T09:41:09+02:00</time>
      </trkpt>
      <trkpt lat="44.26174" lon="0.93331">
        <ele>198.9</ele>
        <time>2022-08-28T09:41:20+02:00</time>
      </trkpt>
      <trkpt lat="44.26161" lon="0.93323">
        <ele>198.5</ele>
        <time>2022-08-28T09:41:30+02:00</time>
      </trkpt>
      <trkpt lat="44.26151" lon="0.9331">
        <ele>197.8</ele>
        <time>2022-08-28T09:41:45+02:00</time>
      </trkpt>
      <trkpt lat="44.26143" lon="0.93293">
        <ele>196.1</ele>
        <time>2022-08-28T09:42:01+02:00</time>
      </trkpt>
      <trkpt lat="44.26137" lon="0.93276">
        <ele>193.9</ele>
        <time>2022-08-28T09:42:13+02:00</time>
      </trkpt>
      <trkpt lat="44.26129" lon="0.93259">
        <ele>191.4</ele>
        <time>2022-08-28T09:42:24+02:00</time>
      </trkpt>
      <trkpt lat="44.26119" lon="0.93245">
        <ele>189.5</ele>
        <time>2022-08-28T09:42:38+02:00</time>
      </trkpt>
      <trkpt lat="44.26111" lon="0.93228">
        <ele>187.9</ele>
        <time>2022-08-28T09:42:50+02:00</time>
      </trkpt>
      <trkpt lat="44.26104" lon="0.9321">
        <ele>186</ele>
        <time>2022-08-28T09:43:02+02:00</time>
      </trkpt>
      <trkpt lat="44.26106" lon="0.93191">
        <ele>184.1</ele>
        <time>2022-08-28T09:43:16+02:00</time>
      </trkpt>
      <trkpt lat="44.26112" lon="0.93174">
        <ele>182.8</ele>
        <time>2022-08-28T09:43:30+02:00</time>
      </trkpt>
      <trkpt lat="44.2612" lon="0.93158">
        <ele>183.6</ele>
        <time>2022-08-28T09:43:47+02:00</time>
      </trkpt>
      <trkpt lat="44.26132" lon="0.93149">
        <ele>185.3</ele>
        <time>2022-08-28T09:43:56+02:00</time>
      </trkpt>
      <trkpt lat="44.26141" lon="0.93134">
        <ele>187.3</ele>
        <time>2022-08-28T09:44:10+02:00</time>
      </trkpt>
      <trkpt lat="44.26154" lon="0.93126">
        <ele>188.7</ele>
        <time>2022-08-28T09:44:29+02:00</time>
      </trkpt>
      <trkpt lat="44.26162" lon="0.9311">
        <ele>190.5</ele>
        <time>2022-08-28T09:44:43+02:00</time>
      </trkpt>
      <trkpt lat="44.26167" lon="0.93092">
        <ele>192.3</ele>
        <time>2022-08-28T09:44:56+02:00</time>
      </trkpt>
      <trkpt lat="44.2616" lon="0.93076">
        <ele>193.7</ele>
        <time>2022-08-28T09:45:13+02:00</time>
      </trkpt>
      <trkpt lat="44.26148" lon="0.93068">
        <ele>194.2</ele>
        <time>2022-08-28T09:45:30+02:00</time>
      </trkpt>
      <trkpt lat="44.26135" lon="0.9306">
        <ele>194.6</ele>
        <time>2022-08-28T09:45:43+02:00</time>
      </trkpt>
      <trkpt lat="44.26123" lon="0.93051">
        <ele>195.3</ele>
        <time>2022-08-28T09:45:57+02:00</time>
      </trkpt>
      <trkpt lat="44.26119" lon="0.93033">
        <ele>197.3</ele>
        <time>2022-08-28T09:46:13+02:00</time>
      </trkpt>
      <trkpt lat="44.26118" lon="0.93013">
        <ele>199.7</ele>
        <time>2022-08-28T09:46:28+02:00</time>
      </trkpt>
      <trkpt lat="44.26115" lon="0.92994">
        <ele>201.6</ele>
        <time>2022-08-28T09:46:43+02:00</time>
      </trkpt>
      <trkpt lat="44.26113" lon="0.92974">
        <ele>202.9</ele>
        <time>2022-08-28T09:46:56+02:00</time>
      </trkpt>
      <trkpt lat="44.26107" lon="0.92957">
        <ele>204</ele>
        <time>2022-08-28T09:47:10+02:00</time>
      </trkpt>
      <trkpt lat="44.261" lon="0.92939">
        <ele>205.3</ele>
        <time>2022-08-28T09:47:22+02:00</time>
      </trkpt>
      <trkpt lat="44.26094" lon="0.92921">
        <ele>206.7</ele>
        <time>2022-08-28T09:47:39+02:00</time>
      </trkpt>
      <trkpt lat="44.26088" lon="0.92903">
        <ele>208.1</ele>
        <time>2022-08-28T09:47:52+02:00</time>
      </trkpt>
      <trkpt lat="44.26081" lon="0.92886">
        <ele>209.7</ele>
        <time>2022-08-28T09:48:05+02:00</time>
      </trkpt>
      <trkpt lat="44.26072" lon="0.92872">
        <ele>211.2</ele>
        <time>2022-08-28T09:48:22+02:00</time>
      </trkpt>
      <trkpt lat="44.26063" lon="0.92855">
        <ele>212.7</ele>
        <time>2022-08-28T09:48:44+02:00</time>
      </trkpt>
      <trkpt lat="44.26052" lon="0.92842">
        <ele>213.8</ele>
        <time>2022-08-28T09:48:58+02:00</time>
      </trkpt>
      <trkpt lat="44.26047" lon="0.92824">
        <ele>214.8</ele>
        <time>2022-08-28T09:49:13+02:00</time>
      </trkpt>
      <trkpt lat="44.26037" lon="0.92809">
        <ele>215.3</ele>
        <time>2022-08-28T09:49:25+02:00</time>
      </trkpt>
      <trkpt lat="44.26031" lon="0.92793">
        <ele>215.6</ele>
        <time>2022-08-28T09:49:38+02:00</time>
      </trkpt>
      <trkpt lat="44.2602" lon="0.92779">
        <ele>215.4</ele>
        <time>2022-08-28T09:49:49+02:00</time>
      </trkpt>
      <trkpt lat="44.26007" lon="0.92773">
        <ele>214.7</ele>
        <time>2022-08-28T09:50:12+02:00</time>
      </trkpt>
      <trkpt lat="44.26004" lon="0.92754">
        <ele>214.3</ele>
        <time>2022-08-28T09:51:53+02:00</time>
      </trkpt>
      <trkpt lat="44.26008" lon="0.92735">
        <ele>214.4</ele>
        <time>2022-08-28T09:52:48+02:00</time>
      </trkpt>
      <trkpt lat="44.2601" lon="0.92714">
        <ele>214.4</ele>
        <time>2022-08-28T09:52:59+02:00</time>
      </trkpt>
      <trkpt lat="44.26013" lon="0.92694">
        <ele>214.4</ele>
        <time>2022-08-28T09:53:10+02:00</time>
      </trkpt>
      <trkpt lat="44.26014" lon="0.92674">
        <ele>214.3</ele>
        <time>2022-08-28T09:53:20+02:00</time>
      </trkpt>
      <trkpt lat="44.26014" lon="0.92655">
        <ele>214.4</ele>
        <time>2022-08-28T09:53:30+02:00</time>
      </trkpt>
      <trkpt lat="44.26011" lon="0.92635">
        <ele>214.6</ele>
        <time>2022-08-28T09:53:40+02:00</time>
      </trkpt>
      <trkpt lat="44.26007" lon="0.92617">
        <ele>214.6</ele>
        <time>2022-08-28T09:53:50+02:00</time>
      </trkpt>
      <trkpt lat="44.25994" lon="0.92614">
        <ele>213.6</ele>
        <time>2022-08-28T09:54:04+02:00</time>
      </trkpt>
      <trkpt lat="44.25981" lon="0.92621">
        <ele>212.2</ele>
        <time>2022-08-28T09:54:14+02:00</time>
      </trkpt>
      <trkpt lat="44.25967" lon="0.92622">
        <ele>210.9</ele>
        <time>2022-08-28T09:54:24+02:00</time>
      </trkpt>
      <trkpt lat="44.25954" lon="0.9263">
        <ele>209.5</ele>
        <time>2022-08-28T09:54:35+02:00</time>
      </trkpt>
      <trkpt lat="44.25942" lon="0.92639">
        <ele>208.3</ele>
        <time>2022-08-28T09:54:55+02:00</time>
      </trkpt>
      <trkpt lat="44.25928" lon="0.92646">
        <ele>207.1</ele>
        <time>2022-08-28T09:55:06+02:00</time>
      </trkpt>
      <trkpt lat="44.25915" lon="0.9265">
        <ele>205.9</ele>
        <time>2022-08-28T09:55:16+02:00</time>
      </trkpt>
      <trkpt lat="44.25902" lon="0.92658">
        <ele>205</ele>
        <time>2022-08-28T09:55:26+02:00</time>
      </trkpt>
      <trkpt lat="44.25889" lon="0.92667">
        <ele>204</ele>
        <time>2022-08-28T09:55:41+02:00</time>
      </trkpt>
      <trkpt lat="44.25875" lon="0.92668">
        <ele>203</ele>
        <time>2022-08-28T09:55:58+02:00</time>
      </trkpt>
      <trkpt lat="44.25864" lon="0.92658">
        <ele>202.5</ele>
        <time>2022-08-28T09:56:14+02:00</time>
      </trkpt>
      <trkpt lat="44.25851" lon="0.92651">
        <ele>202</ele>
        <time>2022-08-28T09:56:25+02:00</time>
      </trkpt>
      <trkpt lat="44.25837" lon="0.9265">
        <ele>201.2</ele>
        <time>2022-08-28T09:56:35+02:00</time>
      </trkpt>
      <trkpt lat="44.25823" lon="0.9265">
        <ele>200.7</ele>
        <time>2022-08-28T09:56:47+02:00</time>
      </trkpt>
      <trkpt lat="44.25809" lon="0.92655">
        <ele>200.1</ele>
        <time>2022-08-28T09:56:58+02:00</time>
      </trkpt>
      <trkpt lat="44.25795" lon="0.92658">
        <ele>199.6</ele>
        <time>2022-08-28T09:57:12+02:00</time>
      </trkpt>
      <trkpt lat="44.25781" lon="0.9266">
        <ele>199.1</ele>
        <time>2022-08-28T09:57:21+02:00</time>
      </trkpt>
      <trkpt lat="44.25767" lon="0.92668">
        <ele>198.3</ele>
        <time>2022-08-28T09:57:34+02:00</time>
      </trkpt>
      <trkpt lat="44.25753" lon="0.92676">
        <ele>197.5</ele>
        <time>2022-08-28T09:57:45+02:00</time>
      </trkpt>
      <trkpt lat="44.25741" lon="0.9269">
        <ele>197.2</ele>
        <time>2022-08-28T09:57:56+02:00</time>
      </trkpt>
      <trkpt lat="44.2573" lon="0.92678">
        <ele>198.7</ele>
        <time>2022-08-28T09:58:52+02:00</time>
      </trkpt>
      <trkpt lat="44.25726" lon="0.9266">
        <ele>200.1</ele>
        <time>2022-08-28T09:59:02+02:00</time>
      </trkpt>
      <trkpt lat="44.25722" lon="0.92641">
        <ele>201.4</ele>
        <time>2022-08-28T09:59:19+02:00</time>
      </trkpt>
      <trkpt lat="44.25716" lon="0.92624">
        <ele>202.8</ele>
        <time>2022-08-28T09:59:45+02:00</time>
      </trkpt>
      <trkpt lat="44.25711" lon="0.92587">
        <ele>205.1</ele>
        <time>2022-08-28T10:00:17+02:00</time>
      </trkpt>
      <trkpt lat="44.25704" lon="0.92571">
        <ele>206.5</ele>
        <time>2022-08-28T10:00:33+02:00</time>
      </trkpt>
      <trkpt lat="44.25695" lon="0.92556">
        <ele>207.6</ele>
        <time>2022-08-28T10:00:47+02:00</time>
      </trkpt>
      <trkpt lat="44.2569" lon="0.92537">
        <ele>208.6</ele>
        <time>2022-08-28T10:01:01+02:00</time>
      </trkpt>
      <trkpt lat="44.25684" lon="0.9252">
        <ele>209.4</ele>
        <time>2022-08-28T10:01:13+02:00</time>
      </trkpt>
      <trkpt lat="44.25678" lon="0.92503">
        <ele>210</ele>
        <time>2022-08-28T10:01:24+02:00</time>
      </trkpt>
      <trkpt lat="44.25671" lon="0.92486">
        <ele>210.3</ele>
        <time>2022-08-28T10:01:38+02:00</time>
      </trkpt>
      <trkpt lat="44.25663" lon="0.9247">
        <ele>210.2</ele>
        <time>2022-08-28T10:01:51+02:00</time>
      </trkpt>
      <trkpt lat="44.25649" lon="0.92468">
        <ele>209.6</ele>
        <time>2022-08-28T10:04:28+02:00</time>
      </trkpt>
      <trkpt lat="44.25636" lon="0.92476">
        <ele>209.1</ele>
        <time>2022-08-28T10:04:40+02:00</time>
      </trkpt>
      <trkpt lat="44.25622" lon="0.92483">
        <ele>208.7</ele>
        <time>2022-08-28T10:04:47+02:00</time>
      </trkpt>
      <trkpt lat="44.2561" lon="0.92492">
        <ele>208.5</ele>
        <time>2022-08-28T10:04:54+02:00</time>
      </trkpt>
      <trkpt lat="44.25596" lon="0.92499">
        <ele>208.3</ele>
        <time>2022-08-28T10:05:04+02:00</time>
      </trkpt>
      <trkpt lat="44.25585" lon="0.9251">
        <ele>208.4</ele>
        <time>2022-08-28T10:05:15+02:00</time>
      </trkpt>
      <trkpt lat="44.25572" lon="0.92521">
        <ele>207.5</ele>
        <time>2022-08-28T10:05:27+02:00</time>
      </trkpt>
      <trkpt lat="44.25562" lon="0.92533">
        <ele>207.1</ele>
        <time>2022-08-28T10:05:39+02:00</time>
      </trkpt>
      <trkpt lat="44.25551" lon="0.92544">
        <ele>206.7</ele>
        <time>2022-08-28T10:05:49+02:00</time>
      </trkpt>
      <trkpt lat="44.2554" lon="0.92556">
        <ele>206.7</ele>
        <time>2022-08-28T10:06:00+02:00</time>
      </trkpt>
      <trkpt lat="44.2553" lon="0.92569">
        <ele>207.1</ele>
        <time>2022-08-28T10:06:13+02:00</time>
      </trkpt>
      <trkpt lat="44.25518" lon="0.9258">
        <ele>207.5</ele>
        <time>2022-08-28T10:06:28+02:00</time>
      </trkpt>
      <trkpt lat="44.25509" lon="0.92594">
        <ele>207.6</ele>
        <time>2022-08-28T10:06:41+02:00</time>
      </trkpt>
      <trkpt lat="44.25497" lon="0.92607">
        <ele>207.2</ele>
        <time>2022-08-28T10:06:52+02:00</time>
      </trkpt>
      <trkpt lat="44.25492" lon="0.92625">
        <ele>207.1</ele>
        <time>2022-08-28T10:06:59+02:00</time>
      </trkpt>
      <trkpt lat="44.25481" lon="0.92639">
        <ele>206.5</ele>
        <time>2022-08-28T10:07:09+02:00</time>
      </trkpt>
      <trkpt lat="44.2547" lon="0.92652">
        <ele>206.2</ele>
        <time>2022-08-28T10:07:19+02:00</time>
      </trkpt>
      <trkpt lat="44.2546" lon="0.92666">
        <ele>206.5</ele>
        <time>2022-08-28T10:07:31+02:00</time>
      </trkpt>
      <trkpt lat="44.2545" lon="0.9268">
        <ele>205.8</ele>
        <time>2022-08-28T10:07:43+02:00</time>
      </trkpt>
      <trkpt lat="44.25438" lon="0.92691">
        <ele>205.1</ele>
        <time>2022-08-28T10:07:54+02:00</time>
      </trkpt>
      <trkpt lat="44.25427" lon="0.92701">
        <ele>204.7</ele>
        <time>2022-08-28T10:08:06+02:00</time>
      </trkpt>
      <trkpt lat="44.25415" lon="0.92713">
        <ele>204.4</ele>
        <time>2022-08-28T10:08:18+02:00</time>
      </trkpt>
      <trkpt lat="44.25402" lon="0.92722">
        <ele>203.6</ele>
        <time>2022-08-28T10:08:29+02:00</time>
      </trkpt>
      <trkpt lat="44.25389" lon="0.92731">
        <ele>203</ele>
        <time>2022-08-28T10:08:42+02:00</time>
      </trkpt>
      <trkpt lat="44.25375" lon="0.92735">
        <ele>202.3</ele>
        <time>2022-08-28T10:08:54+02:00</time>
      </trkpt>
      <trkpt lat="44.25361" lon="0.92738">
        <ele>201.6</ele>
        <time>2022-08-28T10:09:03+02:00</time>
      </trkpt>
      <trkpt lat="44.25349" lon="0.92728">
        <ele>200.2</ele>
        <time>2022-08-28T10:09:16+02:00</time>
      </trkpt>
      <trkpt lat="44.25357" lon="0.92712">
        <ele>199.7</ele>
        <time>2022-08-28T10:09:38+02:00</time>
      </trkpt>
      <trkpt lat="44.25364" lon="0.92695">
        <ele>199.3</ele>
        <time>2022-08-28T10:09:53+02:00</time>
      </trkpt>
      <trkpt lat="44.25371" lon="0.92678">
        <ele>199.1</ele>
        <time>2022-08-28T10:10:10+02:00</time>
      </trkpt>
      <trkpt lat="44.2538" lon="0.92663">
        <ele>198.9</ele>
        <time>2022-08-28T10:10:23+02:00</time>
      </trkpt>
      <trkpt lat="44.25385" lon="0.92644">
        <ele>196.5</ele>
        <time>2022-08-28T10:10:40+02:00</time>
      </trkpt>
      <trkpt lat="44.25393" lon="0.92628">
        <ele>195.1</ele>
        <time>2022-08-28T10:10:53+02:00</time>
      </trkpt>
      <trkpt lat="44.25403" lon="0.92613">
        <ele>194.5</ele>
        <time>2022-08-28T10:11:07+02:00</time>
      </trkpt>
      <trkpt lat="44.25413" lon="0.926">
        <ele>194.6</ele>
        <time>2022-08-28T10:11:21+02:00</time>
      </trkpt>
      <trkpt lat="44.25422" lon="0.92585">
        <ele>194.2</ele>
        <time>2022-08-28T10:11:35+02:00</time>
      </trkpt>
      <trkpt lat="44.25429" lon="0.92568">
        <ele>192</ele>
        <time>2022-08-28T10:11:48+02:00</time>
      </trkpt>
      <trkpt lat="44.25435" lon="0.92551">
        <ele>190.1</ele>
        <time>2022-08-28T10:11:58+02:00</time>
      </trkpt>
      <trkpt lat="44.25441" lon="0.92534">
        <ele>188.3</ele>
        <time>2022-08-28T10:12:08+02:00</time>
      </trkpt>
      <trkpt lat="44.25449" lon="0.92518">
        <ele>187.3</ele>
        <time>2022-08-28T10:12:19+02:00</time>
      </trkpt>
      <trkpt lat="44.25459" lon="0.92504">
        <ele>187.4</ele>
        <time>2022-08-28T10:12:33+02:00</time>
      </trkpt>
      <trkpt lat="44.25467" lon="0.92488">
        <ele>188.2</ele>
        <time>2022-08-28T10:12:47+02:00</time>
      </trkpt>
      <trkpt lat="44.25473" lon="0.9247">
        <ele>188.5</ele>
        <time>2022-08-28T10:13:01+02:00</time>
      </trkpt>
      <trkpt lat="44.25485" lon="0.92459">
        <ele>189.9</ele>
        <time>2022-08-28T10:13:14+02:00</time>
      </trkpt>
      <trkpt lat="44.25495" lon="0.92444">
        <ele>190.2</ele>
        <time>2022-08-28T10:13:29+02:00</time>
      </trkpt>
      <trkpt lat="44.25504" lon="0.9243">
        <ele>190.1</ele>
        <time>2022-08-28T10:13:50+02:00</time>
      </trkpt>
      <trkpt lat="44.25512" lon="0.92413">
        <ele>190.7</ele>
        <time>2022-08-28T10:13:59+02:00</time>
      </trkpt>
      <trkpt lat="44.2552" lon="0.92396">
        <ele>193.1</ele>
        <time>2022-08-28T10:14:09+02:00</time>
      </trkpt>
      <trkpt lat="44.25526" lon="0.92379">
        <ele>194.9</ele>
        <time>2022-08-28T10:14:28+02:00</time>
      </trkpt>
      <trkpt lat="44.25524" lon="0.92354">
        <ele>195.7</ele>
        <time>2022-08-28T10:14:36+02:00</time>
      </trkpt>
      <trkpt lat="44.25526" lon="0.92333">
        <ele>196.8</ele>
        <time>2022-08-28T10:14:42+02:00</time>
      </trkpt>
      <trkpt lat="44.25518" lon="0.92318">
        <ele>197.1</ele>
        <time>2022-08-28T10:15:01+02:00</time>
      </trkpt>
      <trkpt lat="44.25505" lon="0.9231">
        <ele>196.7</ele>
        <time>2022-08-28T10:15:23+02:00</time>
      </trkpt>
      <trkpt lat="44.25493" lon="0.92304">
        <ele>197.2</ele>
        <time>2022-08-28T10:15:38+02:00</time>
      </trkpt>
      <trkpt lat="44.25504" lon="0.92292">
        <ele>198.2</ele>
        <time>2022-08-28T10:16:26+02:00</time>
      </trkpt>
      <trkpt lat="44.25506" lon="0.92272">
        <ele>200.1</ele>
        <time>2022-08-28T10:16:37+02:00</time>
      </trkpt>
      <trkpt lat="44.25507" lon="0.92252">
        <ele>202</ele>
        <time>2022-08-28T10:16:52+02:00</time>
      </trkpt>
      <trkpt lat="44.25506" lon="0.92232">
        <ele>203.4</ele>
        <time>2022-08-28T10:17:07+02:00</time>
      </trkpt>
      <trkpt lat="44.25507" lon="0.92212">
        <ele>204.8</ele>
        <time>2022-08-28T10:17:21+02:00</time>
      </trkpt>
      <trkpt lat="44.25508" lon="0.92193">
        <ele>206.1</ele>
        <time>2022-08-28T10:17:34+02:00</time>
      </trkpt>
      <trkpt lat="44.25507" lon="0.92173">
        <ele>207.4</ele>
        <time>2022-08-28T10:17:47+02:00</time>
      </trkpt>
      <trkpt lat="44.25508" lon="0.92154">
        <ele>208.8</ele>
        <time>2022-08-28T10:18:01+02:00</time>
      </trkpt>
      <trkpt lat="44.25507" lon="0.92135">
        <ele>210.4</ele>
        <time>2022-08-28T10:18:14+02:00</time>
      </trkpt>
      <trkpt lat="44.25507" lon="0.92115">
        <ele>212</ele>
        <time>2022-08-28T10:18:25+02:00</time>
      </trkpt>
      <trkpt lat="44.25508" lon="0.92094">
        <ele>213.5</ele>
        <time>2022-08-28T10:18:37+02:00</time>
      </trkpt>
      <trkpt lat="44.25505" lon="0.92075">
        <ele>215.1</ele>
        <time>2022-08-28T10:18:51+02:00</time>
      </trkpt>
      <trkpt lat="44.25502" lon="0.92056">
        <ele>216.2</ele>
        <time>2022-08-28T10:19:02+02:00</time>
      </trkpt>
      <trkpt lat="44.25499" lon="0.92038">
        <ele>217.2</ele>
        <time>2022-08-28T10:19:17+02:00</time>
      </trkpt>
      <trkpt lat="44.25495" lon="0.92018">
        <ele>218</ele>
        <time>2022-08-28T10:19:30+02:00</time>
      </trkpt>
      <trkpt lat="44.25487" lon="0.92001">
        <ele>218.5</ele>
        <time>2022-08-28T10:19:43+02:00</time>
      </trkpt>
      <trkpt lat="44.25478" lon="0.91987">
        <ele>218.3</ele>
        <time>2022-08-28T10:19:53+02:00</time>
      </trkpt>
      <trkpt lat="44.25468" lon="0.91974">
        <ele>217.8</ele>
        <time>2022-08-28T10:20:05+02:00</time>
      </trkpt>
      <trkpt lat="44.25458" lon="0.91958">
        <ele>216.9</ele>
        <time>2022-08-28T10:20:15+02:00</time>
      </trkpt>
      <trkpt lat="44.25448" lon="0.91945">
        <ele>215.8</ele>
        <time>2022-08-28T10:20:29+02:00</time>
      </trkpt>
      <trkpt lat="44.25435" lon="0.91936">
        <ele>214.2</ele>
        <time>2022-08-28T10:20:40+02:00</time>
      </trkpt>
      <trkpt lat="44.2543" lon="0.91917">
        <ele>212.8</ele>
        <time>2022-08-28T10:21:11+02:00</time>
      </trkpt>
      <trkpt lat="44.25429" lon="0.91898">
        <ele>212</ele>
        <time>2022-08-28T10:22:24+02:00</time>
      </trkpt>
      <trkpt lat="44.25436" lon="0.91881">
        <ele>212.5</ele>
        <time>2022-08-28T10:22:37+02:00</time>
      </trkpt>
      <trkpt lat="44.25441" lon="0.91862">
        <ele>212.7</ele>
        <time>2022-08-28T10:22:52+02:00</time>
      </trkpt>
      <trkpt lat="44.25447" lon="0.91825">
        <ele>212.5</ele>
        <time>2022-08-28T10:23:17+02:00</time>
      </trkpt>
      <trkpt lat="44.25448" lon="0.91805">
        <ele>212.2</ele>
        <time>2022-08-28T10:23:29+02:00</time>
      </trkpt>
      <trkpt lat="44.25444" lon="0.91787">
        <ele>211.3</ele>
        <time>2022-08-28T10:23:37+02:00</time>
      </trkpt>
      <trkpt lat="44.25437" lon="0.9177">
        <ele>210.2</ele>
        <time>2022-08-28T10:23:49+02:00</time>
      </trkpt>
      <trkpt lat="44.2543" lon="0.91753">
        <ele>209.3</ele>
        <time>2022-08-28T10:24:10+02:00</time>
      </trkpt>
      <trkpt lat="44.25436" lon="0.91737">
        <ele>209.1</ele>
        <time>2022-08-28T10:24:23+02:00</time>
      </trkpt>
      <trkpt lat="44.25444" lon="0.91721">
        <ele>209</ele>
        <time>2022-08-28T10:24:35+02:00</time>
      </trkpt>
      <trkpt lat="44.25452" lon="0.91704">
        <ele>208.8</ele>
        <time>2022-08-28T10:24:47+02:00</time>
      </trkpt>
      <trkpt lat="44.25441" lon="0.91719">
        <ele>208.5</ele>
        <time>2022-08-28T10:25:27+02:00</time>
      </trkpt>
      <trkpt lat="44.25429" lon="0.91728">
        <ele>207.9</ele>
        <time>2022-08-28T10:25:37+02:00</time>
      </trkpt>
      <trkpt lat="44.25416" lon="0.91736">
        <ele>207.1</ele>
        <time>2022-08-28T10:25:47+02:00</time>
      </trkpt>
      <trkpt lat="44.25403" lon="0.91745">
        <ele>206</ele>
        <time>2022-08-28T10:26:00+02:00</time>
      </trkpt>
      <trkpt lat="44.25388" lon="0.91749">
        <ele>204.5</ele>
        <time>2022-08-28T10:26:09+02:00</time>
      </trkpt>
      <trkpt lat="44.25374" lon="0.91749">
        <ele>202.8</ele>
        <time>2022-08-28T10:26:21+02:00</time>
      </trkpt>
      <trkpt lat="44.2536" lon="0.91744">
        <ele>200.8</ele>
        <time>2022-08-28T10:26:32+02:00</time>
      </trkpt>
      <trkpt lat="44.25346" lon="0.9174">
        <ele>199</ele>
        <time>2022-08-28T10:26:44+02:00</time>
      </trkpt>
      <trkpt lat="44.25332" lon="0.91739">
        <ele>197.2</ele>
        <time>2022-08-28T10:26:56+02:00</time>
      </trkpt>
      <trkpt lat="44.25317" lon="0.91737">
        <ele>195.1</ele>
        <time>2022-08-28T10:27:07+02:00</time>
      </trkpt>
      <trkpt lat="44.25305" lon="0.91728">
        <ele>192.9</ele>
        <time>2022-08-28T10:27:16+02:00</time>
      </trkpt>
      <trkpt lat="44.25291" lon="0.91724">
        <ele>190.8</ele>
        <time>2022-08-28T10:27:26+02:00</time>
      </trkpt>
      <trkpt lat="44.25278" lon="0.91722">
        <ele>188.8</ele>
        <time>2022-08-28T10:27:37+02:00</time>
      </trkpt>
      <trkpt lat="44.25264" lon="0.91722">
        <ele>187</ele>
        <time>2022-08-28T10:27:46+02:00</time>
      </trkpt>
      <trkpt lat="44.2525" lon="0.91724">
        <ele>185.1</ele>
        <time>2022-08-28T10:27:55+02:00</time>
      </trkpt>
      <trkpt lat="44.25237" lon="0.91728">
        <ele>183.3</ele>
        <time>2022-08-28T10:28:06+02:00</time>
      </trkpt>
      <trkpt lat="44.25223" lon="0.9173">
        <ele>181.4</ele>
        <time>2022-08-28T10:28:17+02:00</time>
      </trkpt>
      <trkpt lat="44.25208" lon="0.91727">
        <ele>179.3</ele>
        <time>2022-08-28T10:28:34+02:00</time>
      </trkpt>
      <trkpt lat="44.25195" lon="0.91729">
        <ele>177.3</ele>
        <time>2022-08-28T10:28:46+02:00</time>
      </trkpt>
      <trkpt lat="44.25181" lon="0.91735">
        <ele>175.1</ele>
        <time>2022-08-28T10:29:00+02:00</time>
      </trkpt>
      <trkpt lat="44.25167" lon="0.91743">
        <ele>172.6</ele>
        <time>2022-08-28T10:29:12+02:00</time>
      </trkpt>
      <trkpt lat="44.25155" lon="0.91751">
        <ele>173.5</ele>
        <time>2022-08-28T10:29:23+02:00</time>
      </trkpt>
      <trkpt lat="44.25141" lon="0.91756">
        <ele>174.8</ele>
        <time>2022-08-28T10:29:35+02:00</time>
      </trkpt>
      <trkpt lat="44.25126" lon="0.91753">
        <ele>176.9</ele>
        <time>2022-08-28T10:30:11+02:00</time>
      </trkpt>
      <trkpt lat="44.25113" lon="0.91761">
        <ele>177.3</ele>
        <time>2022-08-28T10:30:24+02:00</time>
      </trkpt>
      <trkpt lat="44.25101" lon="0.9177">
        <ele>177</ele>
        <time>2022-08-28T10:30:36+02:00</time>
      </trkpt>
      <trkpt lat="44.25092" lon="0.91784">
        <ele>175</ele>
        <time>2022-08-28T10:30:47+02:00</time>
      </trkpt>
      <trkpt lat="44.25084" lon="0.91801">
        <ele>171.9</ele>
        <time>2022-08-28T10:30:56+02:00</time>
      </trkpt>
      <trkpt lat="44.25074" lon="0.91817">
        <ele>170.8</ele>
        <time>2022-08-28T10:31:06+02:00</time>
      </trkpt>
      <trkpt lat="44.25067" lon="0.91835">
        <ele>169.5</ele>
        <time>2022-08-28T10:31:15+02:00</time>
      </trkpt>
      <trkpt lat="44.25057" lon="0.91848">
        <ele>170.8</ele>
        <time>2022-08-28T10:31:25+02:00</time>
      </trkpt>
      <trkpt lat="44.25048" lon="0.91862">
        <ele>171.1</ele>
        <time>2022-08-28T10:31:39+02:00</time>
      </trkpt>
      <trkpt lat="44.25037" lon="0.91873">
        <ele>172</ele>
        <time>2022-08-28T10:31:48+02:00</time>
      </trkpt>
      <trkpt lat="44.25026" lon="0.91887">
        <ele>172.1</ele>
        <time>2022-08-28T10:32:04+02:00</time>
      </trkpt>
      <trkpt lat="44.25018" lon="0.91903">
        <ele>170.9</ele>
        <time>2022-08-28T10:32:15+02:00</time>
      </trkpt>
      <trkpt lat="44.25009" lon="0.91918">
        <ele>169.5</ele>
        <time>2022-08-28T10:32:25+02:00</time>
      </trkpt>
      <trkpt lat="44.25004" lon="0.91936">
        <ele>167.7</ele>
        <time>2022-08-28T10:32:36+02:00</time>
      </trkpt>
      <trkpt lat="44.24998" lon="0.91953">
        <ele>165.5</ele>
        <time>2022-08-28T10:32:47+02:00</time>
      </trkpt>
      <trkpt lat="44.24989" lon="0.91969">
        <ele>163.7</ele>
        <time>2022-08-28T10:32:57+02:00</time>
      </trkpt>
      <trkpt lat="44.2498" lon="0.91985">
        <ele>161.8</ele>
        <time>2022-08-28T10:33:06+02:00</time>
      </trkpt>
      <trkpt lat="44.2497" lon="0.91999">
        <ele>160.1</ele>
        <time>2022-08-28T10:33:16+02:00</time>
      </trkpt>
      <trkpt lat="44.24959" lon="0.92012">
        <ele>159.9</ele>
        <time>2022-08-28T10:33:26+02:00</time>
      </trkpt>
      <trkpt lat="44.24947" lon="0.92022">
        <ele>159.5</ele>
        <time>2022-08-28T10:33:34+02:00</time>
      </trkpt>
      <trkpt lat="44.24936" lon="0.92034">
        <ele>158.3</ele>
        <time>2022-08-28T10:33:41+02:00</time>
      </trkpt>
      <trkpt lat="44.24925" lon="0.92044">
        <ele>156.6</ele>
        <time>2022-08-28T10:33:48+02:00</time>
      </trkpt>
      <trkpt lat="44.24913" lon="0.92054">
        <ele>154.7</ele>
        <time>2022-08-28T10:33:54+02:00</time>
      </trkpt>
      <trkpt lat="44.249" lon="0.92061">
        <ele>153.9</ele>
        <time>2022-08-28T10:34:01+02:00</time>
      </trkpt>
      <trkpt lat="44.24887" lon="0.92068">
        <ele>153.1</ele>
        <time>2022-08-28T10:34:09+02:00</time>
      </trkpt>
      <trkpt lat="44.24872" lon="0.92072">
        <ele>152.7</ele>
        <time>2022-08-28T10:34:18+02:00</time>
      </trkpt>
      <trkpt lat="44.2486" lon="0.92081">
        <ele>151.2</ele>
        <time>2022-08-28T10:34:27+02:00</time>
      </trkpt>
      <trkpt lat="44.24848" lon="0.92091">
        <ele>150.7</ele>
        <time>2022-08-28T10:34:35+02:00</time>
      </trkpt>
      <trkpt lat="44.24835" lon="0.92099">
        <ele>150.1</ele>
        <time>2022-08-28T10:34:44+02:00</time>
      </trkpt>
      <trkpt lat="44.24823" lon="0.92107">
        <ele>150.8</ele>
        <time>2022-08-28T10:34:53+02:00</time>
      </trkpt>
      <trkpt lat="44.24809" lon="0.92116">
        <ele>151.6</ele>
        <time>2022-08-28T10:35:02+02:00</time>
      </trkpt>
      <trkpt lat="44.24795" lon="0.92124">
        <ele>152.6</ele>
        <time>2022-08-28T10:35:11+02:00</time>
      </trkpt>
      <trkpt lat="44.24782" lon="0.92133">
        <ele>153</ele>
        <time>2022-08-28T10:35:20+02:00</time>
      </trkpt>
      <trkpt lat="44.2477" lon="0.92145">
        <ele>153.2</ele>
        <time>2022-08-28T10:35:33+02:00</time>
      </trkpt>
      <trkpt lat="44.24758" lon="0.92153">
        <ele>153.6</ele>
        <time>2022-08-28T10:38:24+02:00</time>
      </trkpt>
      <trkpt lat="44.24748" lon="0.92166">
        <ele>152.6</ele>
        <time>2022-08-28T10:38:37+02:00</time>
      </trkpt>
      <trkpt lat="44.24737" lon="0.92179">
        <ele>148</ele>
        <time>2022-08-28T10:38:51+02:00</time>
      </trkpt>
      <trkpt lat="44.24726" lon="0.92191">
        <ele>143.6</ele>
        <time>2022-08-28T10:39:03+02:00</time>
      </trkpt>
      <trkpt lat="44.24717" lon="0.92206">
        <ele>139.6</ele>
        <time>2022-08-28T10:39:16+02:00</time>
      </trkpt>
      <trkpt lat="44.24708" lon="0.92222">
        <ele>135.6</ele>
        <time>2022-08-28T10:39:29+02:00</time>
      </trkpt>
      <trkpt lat="44.24701" lon="0.92239">
        <ele>132.2</ele>
        <time>2022-08-28T10:39:41+02:00</time>
      </trkpt>
      <trkpt lat="44.24693" lon="0.92254">
        <ele>129.2</ele>
        <time>2022-08-28T10:39:56+02:00</time>
      </trkpt>
      <trkpt lat="44.24695" lon="0.92274">
        <ele>128.2</ele>
        <time>2022-08-28T10:40:19+02:00</time>
      </trkpt>
      <trkpt lat="44.24686" lon="0.92289">
        <ele>126.4</ele>
        <time>2022-08-28T10:40:28+02:00</time>
      </trkpt>
      <trkpt lat="44.24675" lon="0.92301">
        <ele>124.8</ele>
        <time>2022-08-28T10:40:37+02:00</time>
      </trkpt>
      <trkpt lat="44.24666" lon="0.92315">
        <ele>123.6</ele>
        <time>2022-08-28T10:40:45+02:00</time>
      </trkpt>
      <trkpt lat="44.24657" lon="0.92331">
        <ele>122.8</ele>
        <time>2022-08-28T10:40:58+02:00</time>
      </trkpt>
      <trkpt lat="44.24649" lon="0.92348">
        <ele>122.8</ele>
        <time>2022-08-28T10:41:10+02:00</time>
      </trkpt>
      <trkpt lat="44.2464" lon="0.92362">
        <ele>122.8</ele>
        <time>2022-08-28T10:41:21+02:00</time>
      </trkpt>
      <trkpt lat="44.24633" lon="0.9238">
        <ele>123</ele>
        <time>2022-08-28T10:41:57+02:00</time>
      </trkpt>
      <trkpt lat="44.24621" lon="0.92391">
        <ele>123</ele>
        <time>2022-08-28T10:42:05+02:00</time>
      </trkpt>
      <trkpt lat="44.24613" lon="0.92408">
        <ele>123.2</ele>
        <time>2022-08-28T10:42:28+02:00</time>
      </trkpt>
      <trkpt lat="44.24605" lon="0.92423">
        <ele>123.6</ele>
        <time>2022-08-28T10:42:45+02:00</time>
      </trkpt>
      <trkpt lat="44.24594" lon="0.92435">
        <ele>124.2</ele>
        <time>2022-08-28T10:42:57+02:00</time>
      </trkpt>
      <trkpt lat="44.24585" lon="0.92451">
        <ele>125.1</ele>
        <time>2022-08-28T10:43:07+02:00</time>
      </trkpt>
      <trkpt lat="44.24574" lon="0.92465">
        <ele>127.4</ele>
        <time>2022-08-28T10:43:20+02:00</time>
      </trkpt>
      <trkpt lat="44.24568" lon="0.92483">
        <ele>129.8</ele>
        <time>2022-08-28T10:43:30+02:00</time>
      </trkpt>
      <trkpt lat="44.24559" lon="0.92498">
        <ele>132.5</ele>
        <time>2022-08-28T10:43:40+02:00</time>
      </trkpt>
      <trkpt lat="44.24549" lon="0.92511">
        <ele>135.3</ele>
        <time>2022-08-28T10:43:48+02:00</time>
      </trkpt>
      <trkpt lat="44.24539" lon="0.92527">
        <ele>137.7</ele>
        <time>2022-08-28T10:43:57+02:00</time>
      </trkpt>
      <trkpt lat="44.24528" lon="0.92539">
        <ele>139.7</ele>
        <time>2022-08-28T10:44:09+02:00</time>
      </trkpt>
      <trkpt lat="44.24516" lon="0.92549">
        <ele>141.5</ele>
        <time>2022-08-28T10:44:17+02:00</time>
      </trkpt>
      <trkpt lat="44.24502" lon="0.92549">
        <ele>143.2</ele>
        <time>2022-08-28T10:44:29+02:00</time>
      </trkpt>
      <trkpt lat="44.24493" lon="0.92564">
        <ele>145</ele>
        <time>2022-08-28T10:44:37+02:00</time>
      </trkpt>
      <trkpt lat="44.24486" lon="0.92581">
        <ele>146.7</ele>
        <time>2022-08-28T10:44:43+02:00</time>
      </trkpt>
      <trkpt lat="44.24476" lon="0.92596">
        <ele>149.1</ele>
        <time>2022-08-28T10:44:51+02:00</time>
      </trkpt>
      <trkpt lat="44.24464" lon="0.92607">
        <ele>151.7</ele>
        <time>2022-08-28T10:45:00+02:00</time>
      </trkpt>
      <trkpt lat="44.24461" lon="0.92626">
        <ele>152</ele>
        <time>2022-08-28T10:46:13+02:00</time>
      </trkpt>
      <trkpt lat="44.24459" lon="0.92644">
        <ele>151.9</ele>
        <time>2022-08-28T10:46:23+02:00</time>
      </trkpt>
      <trkpt lat="44.24449" lon="0.9266">
        <ele>154.2</ele>
        <time>2022-08-28T10:46:41+02:00</time>
      </trkpt>
      <trkpt lat="44.24445" lon="0.9268">
        <ele>155.5</ele>
        <time>2022-08-28T10:46:49+02:00</time>
      </trkpt>
      <trkpt lat="44.2444" lon="0.92699">
        <ele>156.9</ele>
        <time>2022-08-28T10:47:09+02:00</time>
      </trkpt>
      <trkpt lat="44.24428" lon="0.92719">
        <ele>159.8</ele>
        <time>2022-08-28T10:47:30+02:00</time>
      </trkpt>
      <trkpt lat="44.24419" lon="0.92757">
        <ele>161.3</ele>
        <time>2022-08-28T10:47:47+02:00</time>
      </trkpt>
      <trkpt lat="44.24413" lon="0.92775">
        <ele>162.6</ele>
        <time>2022-08-28T10:47:57+02:00</time>
      </trkpt>
      <trkpt lat="44.24401" lon="0.92787">
        <ele>166.1</ele>
        <time>2022-08-28T10:48:08+02:00</time>
      </trkpt>
      <trkpt lat="44.244" lon="0.92807">
        <ele>166.1</ele>
        <time>2022-08-28T10:48:26+02:00</time>
      </trkpt>
      <trkpt lat="44.24408" lon="0.92827">
        <ele>162.9</ele>
        <time>2022-08-28T10:48:32+02:00</time>
      </trkpt>
      <trkpt lat="44.24411" lon="0.92849">
        <ele>161.9</ele>
        <time>2022-08-28T10:48:37+02:00</time>
      </trkpt>
      <trkpt lat="44.24416" lon="0.92872">
        <ele>160.1</ele>
        <time>2022-08-28T10:48:41+02:00</time>
      </trkpt>
      <trkpt lat="44.24417" lon="0.92895">
        <ele>160</ele>
        <time>2022-08-28T10:48:44+02:00</time>
      </trkpt>
      <trkpt lat="44.24417" lon="0.92917">
        <ele>160</ele>
        <time>2022-08-28T10:48:49+02:00</time>
      </trkpt>
      <trkpt lat="44.2441" lon="0.92901">
        <ele>162.3</ele>
        <time>2022-08-28T10:49:11+02:00</time>
      </trkpt>
      <trkpt lat="44.24397" lon="0.92891">
        <ele>166.3</ele>
        <time>2022-08-28T10:49:19+02:00</time>
      </trkpt>
      <trkpt lat="44.24389" lon="0.92908">
        <ele>168.9</ele>
        <time>2022-08-28T10:49:35+02:00</time>
      </trkpt>
      <trkpt lat="44.2438" lon="0.92925">
        <ele>171.9</ele>
        <time>2022-08-28T10:49:46+02:00</time>
      </trkpt>
      <trkpt lat="44.24372" lon="0.9294">
        <ele>174.9</ele>
        <time>2022-08-28T10:49:51+02:00</time>
      </trkpt>
      <trkpt lat="44.24372" lon="0.92961">
        <ele>175.4</ele>
        <time>2022-08-28T10:50:04+02:00</time>
      </trkpt>
      <trkpt lat="44.24375" lon="0.92981">
        <ele>174.5</ele>
        <time>2022-08-28T10:50:24+02:00</time>
      </trkpt>
      <trkpt lat="44.24368" lon="0.92998">
        <ele>177.5</ele>
        <time>2022-08-28T10:50:39+02:00</time>
      </trkpt>
      <trkpt lat="44.24363" lon="0.93017">
        <ele>178.1</ele>
        <time>2022-08-28T10:51:03+02:00</time>
      </trkpt>
      <trkpt lat="44.24356" lon="0.93037">
        <ele>179.3</ele>
        <time>2022-08-28T10:51:11+02:00</time>
      </trkpt>
      <trkpt lat="44.24343" lon="0.93043">
        <ele>182.6</ele>
        <time>2022-08-28T10:51:25+02:00</time>
      </trkpt>
      <trkpt lat="44.24329" lon="0.93044">
        <ele>185.9</ele>
        <time>2022-08-28T10:52:01+02:00</time>
      </trkpt>
      <trkpt lat="44.2432" lon="0.93057">
        <ele>186.1</ele>
        <time>2022-08-28T10:52:07+02:00</time>
      </trkpt>
      <trkpt lat="44.24318" lon="0.93078">
        <ele>184.8</ele>
        <time>2022-08-28T10:52:15+02:00</time>
      </trkpt>
      <trkpt lat="44.24307" lon="0.93095">
        <ele>185.2</ele>
        <time>2022-08-28T10:52:26+02:00</time>
      </trkpt>
      <trkpt lat="44.243" lon="0.93116">
        <ele>184.8</ele>
        <time>2022-08-28T10:52:31+02:00</time>
      </trkpt>
      <trkpt lat="44.24294" lon="0.93134">
        <ele>184.8</ele>
        <time>2022-08-28T10:52:42+02:00</time>
      </trkpt>
      <trkpt lat="44.24293" lon="0.93153">
        <ele>183.6</ele>
        <time>2022-08-28T10:52:47+02:00</time>
      </trkpt>
      <trkpt lat="44.24288" lon="0.93172">
        <ele>183.6</ele>
        <time>2022-08-28T10:53:13+02:00</time>
      </trkpt>
      <trkpt lat="44.24274" lon="0.93176">
        <ele>186.3</ele>
        <time>2022-08-28T10:53:25+02:00</time>
      </trkpt>
      <trkpt lat="44.24269" lon="0.93197">
        <ele>186.2</ele>
        <time>2022-08-28T10:54:03+02:00</time>
      </trkpt>
      <trkpt lat="44.24267" lon="0.93216">
        <ele>185.6</ele>
        <time>2022-08-28T10:54:13+02:00</time>
      </trkpt>
      <trkpt lat="44.24274" lon="0.93234">
        <ele>183.4</ele>
        <time>2022-08-28T10:55:01+02:00</time>
      </trkpt>
      <trkpt lat="44.24283" lon="0.93255">
        <ele>181.4</ele>
        <time>2022-08-28T10:55:06+02:00</time>
      </trkpt>
      <trkpt lat="44.24291" lon="0.93272">
        <ele>180.6</ele>
        <time>2022-08-28T10:55:10+02:00</time>
      </trkpt>
      <trkpt lat="44.24297" lon="0.93288">
        <ele>180.4</ele>
        <time>2022-08-28T10:55:17+02:00</time>
      </trkpt>
      <trkpt lat="44.24288" lon="0.93302">
        <ele>181.5</ele>
        <time>2022-08-28T10:55:32+02:00</time>
      </trkpt>
      <trkpt lat="44.24274" lon="0.93298">
        <ele>182.5</ele>
        <time>2022-08-28T10:55:41+02:00</time>
      </trkpt>
      <trkpt lat="44.24269" lon="0.93316">
        <ele>182.7</ele>
        <time>2022-08-28T10:55:52+02:00</time>
      </trkpt>
      <trkpt lat="44.2426" lon="0.93332">
        <ele>182.8</ele>
        <time>2022-08-28T10:56:06+02:00</time>
      </trkpt>
      <trkpt lat="44.24252" lon="0.93348">
        <ele>184</ele>
        <time>2022-08-28T10:56:47+02:00</time>
      </trkpt>
      <trkpt lat="44.24239" lon="0.93357">
        <ele>186.1</ele>
        <time>2022-08-28T10:56:59+02:00</time>
      </trkpt>
      <trkpt lat="44.24235" lon="0.93376">
        <ele>187.9</ele>
        <time>2022-08-28T10:57:08+02:00</time>
      </trkpt>
      <trkpt lat="44.24235" lon="0.93395">
        <ele>189.1</ele>
        <time>2022-08-28T10:57:18+02:00</time>
      </trkpt>
      <trkpt lat="44.24233" lon="0.93415">
        <ele>190.5</ele>
        <time>2022-08-28T10:57:31+02:00</time>
      </trkpt>
      <trkpt lat="44.2422" lon="0.93427">
        <ele>192.5</ele>
        <time>2022-08-28T10:57:36+02:00</time>
      </trkpt>
      <trkpt lat="44.24217" lon="0.93448">
        <ele>194</ele>
        <time>2022-08-28T10:57:43+02:00</time>
      </trkpt>
      <trkpt lat="44.24223" lon="0.93468">
        <ele>194.6</ele>
        <time>2022-08-28T10:57:50+02:00</time>
      </trkpt>
      <trkpt lat="44.2421" lon="0.93462">
        <ele>195.3</ele>
        <time>2022-08-28T10:58:11+02:00</time>
      </trkpt>
      <trkpt lat="44.24197" lon="0.93453">
        <ele>195.9</ele>
        <time>2022-08-28T10:58:19+02:00</time>
      </trkpt>
      <trkpt lat="44.24184" lon="0.93445">
        <ele>196.6</ele>
        <time>2022-08-28T10:58:29+02:00</time>
      </trkpt>
      <trkpt lat="44.24171" lon="0.9344">
        <ele>197.5</ele>
        <time>2022-08-28T10:58:37+02:00</time>
      </trkpt>
      <trkpt lat="44.24159" lon="0.93428">
        <ele>197.6</ele>
        <time>2022-08-28T10:58:52+02:00</time>
      </trkpt>
      <trkpt lat="44.24144" lon="0.9342">
        <ele>197.7</ele>
        <time>2022-08-28T10:59:01+02:00</time>
      </trkpt>
      <trkpt lat="44.24136" lon="0.93406">
        <ele>197.6</ele>
        <time>2022-08-28T10:59:20+02:00</time>
      </trkpt>
      <trkpt lat="44.24122" lon="0.93398">
        <ele>197.9</ele>
        <time>2022-08-28T10:59:29+02:00</time>
      </trkpt>
      <trkpt lat="44.24111" lon="0.93387">
        <ele>198.1</ele>
        <time>2022-08-28T10:59:43+02:00</time>
      </trkpt>
      <trkpt lat="44.24102" lon="0.93372">
        <ele>198.3</ele>
        <time>2022-08-28T10:59:57+02:00</time>
      </trkpt>
      <trkpt lat="44.24095" lon="0.93356">
        <ele>198.5</ele>
        <time>2022-08-28T11:01:01+02:00</time>
      </trkpt>
      <trkpt lat="44.24103" lon="0.93372">
        <ele>198.3</ele>
        <time>2022-08-28T11:01:27+02:00</time>
      </trkpt>
      <trkpt lat="44.24111" lon="0.93388">
        <ele>198.1</ele>
        <time>2022-08-28T11:01:46+02:00</time>
      </trkpt>
      <trkpt lat="44.24118" lon="0.93405">
        <ele>198</ele>
        <time>2022-08-28T11:01:57+02:00</time>
      </trkpt>
      <trkpt lat="44.24127" lon="0.9342">
        <ele>198.1</ele>
        <time>2022-08-28T11:02:06+02:00</time>
      </trkpt>
      <trkpt lat="44.24129" lon="0.93439">
        <ele>198.6</ele>
        <time>2022-08-28T11:02:12+02:00</time>
      </trkpt>
      <trkpt lat="44.24133" lon="0.93459">
        <ele>199.1</ele>
        <time>2022-08-28T11:02:20+02:00</time>
      </trkpt>
      <trkpt lat="44.2414" lon="0.93497">
        <ele>200.2</ele>
        <time>2022-08-28T11:02:39+02:00</time>
      </trkpt>
      <trkpt lat="44.24142" lon="0.93516">
        <ele>200.5</ele>
        <time>2022-08-28T11:03:40+02:00</time>
      </trkpt>
      <trkpt lat="44.24152" lon="0.93529">
        <ele>200.4</ele>
        <time>2022-08-28T11:03:55+02:00</time>
      </trkpt>
      <trkpt lat="44.24164" lon="0.93539">
        <ele>200.1</ele>
        <time>2022-08-28T11:04:11+02:00</time>
      </trkpt>
      <trkpt lat="44.24178" lon="0.93529">
        <ele>199.5</ele>
        <time>2022-08-28T11:04:23+02:00</time>
      </trkpt>
      <trkpt lat="44.2419" lon="0.93521">
        <ele>198.8</ele>
        <time>2022-08-28T11:04:35+02:00</time>
      </trkpt>
      <trkpt lat="44.24202" lon="0.93532">
        <ele>198.4</ele>
        <time>2022-08-28T11:04:47+02:00</time>
      </trkpt>
      <trkpt lat="44.2421" lon="0.93547">
        <ele>198.3</ele>
        <time>2022-08-28T11:04:58+02:00</time>
      </trkpt>
      <trkpt lat="44.24222" lon="0.93558">
        <ele>198.1</ele>
        <time>2022-08-28T11:05:10+02:00</time>
      </trkpt>
      <trkpt lat="44.24232" lon="0.93571">
        <ele>198.1</ele>
        <time>2022-08-28T11:05:22+02:00</time>
      </trkpt>
      <trkpt lat="44.24243" lon="0.93584">
        <ele>198.2</ele>
        <time>2022-08-28T11:05:35+02:00</time>
      </trkpt>
      <trkpt lat="44.24252" lon="0.93599">
        <ele>199</ele>
        <time>2022-08-28T11:05:47+02:00</time>
      </trkpt>
      <trkpt lat="44.24262" lon="0.93614">
        <ele>200.6</ele>
        <time>2022-08-28T11:06:00+02:00</time>
      </trkpt>
      <trkpt lat="44.24272" lon="0.93627">
        <ele>202.2</ele>
        <time>2022-08-28T11:06:11+02:00</time>
      </trkpt>
      <trkpt lat="44.24283" lon="0.93639">
        <ele>203.8</ele>
        <time>2022-08-28T11:06:21+02:00</time>
      </trkpt>
      <trkpt lat="44.24293" lon="0.93651">
        <ele>205.4</ele>
        <time>2022-08-28T11:06:35+02:00</time>
      </trkpt>
      <trkpt lat="44.24305" lon="0.93663">
        <ele>207.1</ele>
        <time>2022-08-28T11:07:24+02:00</time>
      </trkpt>
      <trkpt lat="44.24317" lon="0.93674">
        <ele>208.8</ele>
        <time>2022-08-28T11:07:36+02:00</time>
      </trkpt>
      <trkpt lat="44.24328" lon="0.93686">
        <ele>210.5</ele>
        <time>2022-08-28T11:07:50+02:00</time>
      </trkpt>
      <trkpt lat="44.24338" lon="0.93701">
        <ele>211.8</ele>
        <time>2022-08-28T11:08:05+02:00</time>
      </trkpt>
      <trkpt lat="44.24349" lon="0.93713">
        <ele>212.8</ele>
        <time>2022-08-28T11:08:17+02:00</time>
      </trkpt>
      <trkpt lat="44.24363" lon="0.93717">
        <ele>213.3</ele>
        <time>2022-08-28T11:08:32+02:00</time>
      </trkpt>
      <trkpt lat="44.24371" lon="0.93702">
        <ele>213.2</ele>
        <time>2022-08-28T11:08:42+02:00</time>
      </trkpt>
      <trkpt lat="44.2438" lon="0.93687">
        <ele>213.2</ele>
        <time>2022-08-28T11:08:55+02:00</time>
      </trkpt>
      <trkpt lat="44.24392" lon="0.93676">
        <ele>213.6</ele>
        <time>2022-08-28T11:09:08+02:00</time>
      </trkpt>
      <trkpt lat="44.24405" lon="0.93685">
        <ele>214.4</ele>
        <time>2022-08-28T11:09:20+02:00</time>
      </trkpt>
      <trkpt lat="44.24418" lon="0.93693">
        <ele>215</ele>
        <time>2022-08-28T11:09:32+02:00</time>
      </trkpt>
      <trkpt lat="44.24431" lon="0.937">
        <ele>214.9</ele>
        <time>2022-08-28T11:09:44+02:00</time>
      </trkpt>
      <trkpt lat="44.24444" lon="0.93707">
        <ele>214.7</ele>
        <time>2022-08-28T11:09:56+02:00</time>
      </trkpt>
      <trkpt lat="44.24457" lon="0.93715">
        <ele>214.4</ele>
        <time>2022-08-28T11:10:07+02:00</time>
      </trkpt>
      <trkpt lat="44.24469" lon="0.93724">
        <ele>213.9</ele>
        <time>2022-08-28T11:10:19+02:00</time>
      </trkpt>
      <trkpt lat="44.24482" lon="0.93732">
        <ele>213.3</ele>
        <time>2022-08-28T11:10:32+02:00</time>
      </trkpt>
      <trkpt lat="44.24495" lon="0.9374">
        <ele>212.6</ele>
        <time>2022-08-28T11:10:43+02:00</time>
      </trkpt>
      <trkpt lat="44.24507" lon="0.93749">
        <ele>211.6</ele>
        <time>2022-08-28T11:10:54+02:00</time>
      </trkpt>
      <trkpt lat="44.24519" lon="0.93758">
        <ele>210.4</ele>
        <time>2022-08-28T11:11:06+02:00</time>
      </trkpt>
      <trkpt lat="44.24533" lon="0.93764">
        <ele>209.2</ele>
        <time>2022-08-28T11:11:17+02:00</time>
      </trkpt>
      <trkpt lat="44.24546" lon="0.93772">
        <ele>207.9</ele>
        <time>2022-08-28T11:11:30+02:00</time>
      </trkpt>
      <trkpt lat="44.24559" lon="0.9378">
        <ele>206.5</ele>
        <time>2022-08-28T11:11:43+02:00</time>
      </trkpt>
      <trkpt lat="44.24572" lon="0.93787">
        <ele>205.2</ele>
        <time>2022-08-28T11:11:54+02:00</time>
      </trkpt>
      <trkpt lat="44.24584" lon="0.93795">
        <ele>203.7</ele>
        <time>2022-08-28T11:12:04+02:00</time>
      </trkpt>
      <trkpt lat="44.24597" lon="0.93804">
        <ele>202</ele>
        <time>2022-08-28T11:12:14+02:00</time>
      </trkpt>
      <trkpt lat="44.24609" lon="0.9381">
        <ele>200.5</ele>
        <time>2022-08-28T11:12:27+02:00</time>
      </trkpt>
      <trkpt lat="44.24622" lon="0.93815">
        <ele>199.1</ele>
        <time>2022-08-28T11:12:36+02:00</time>
      </trkpt>
      <trkpt lat="44.24636" lon="0.9382">
        <ele>197.8</ele>
        <time>2022-08-28T11:12:48+02:00</time>
      </trkpt>
      <trkpt lat="44.24649" lon="0.93827">
        <ele>196.5</ele>
        <time>2022-08-28T11:13:02+02:00</time>
      </trkpt>
      <trkpt lat="44.24658" lon="0.93842">
        <ele>194.9</ele>
        <time>2022-08-28T11:13:35+02:00</time>
      </trkpt>
      <trkpt lat="44.24654" lon="0.93861">
        <ele>193.6</ele>
        <time>2022-08-28T11:13:49+02:00</time>
      </trkpt>
      <trkpt lat="44.24648" lon="0.93878">
        <ele>192.5</ele>
        <time>2022-08-28T11:14:03+02:00</time>
      </trkpt>
      <trkpt lat="44.24642" lon="0.93896">
        <ele>191.3</ele>
        <time>2022-08-28T11:14:16+02:00</time>
      </trkpt>
      <trkpt lat="44.24648" lon="0.93913">
        <ele>189.4</ele>
        <time>2022-08-28T11:14:33+02:00</time>
      </trkpt>
      <trkpt lat="44.24659" lon="0.93924">
        <ele>187.2</ele>
        <time>2022-08-28T11:14:51+02:00</time>
      </trkpt>
      <trkpt lat="44.24673" lon="0.93932">
        <ele>184.6</ele>
        <time>2022-08-28T11:15:05+02:00</time>
      </trkpt>
      <trkpt lat="44.24686" lon="0.93938">
        <ele>182.1</ele>
        <time>2022-08-28T11:15:19+02:00</time>
      </trkpt>
      <trkpt lat="44.247" lon="0.93944">
        <ele>179.6</ele>
        <time>2022-08-28T11:15:33+02:00</time>
      </trkpt>
      <trkpt lat="44.24713" lon="0.93953">
        <ele>176.8</ele>
        <time>2022-08-28T11:15:48+02:00</time>
      </trkpt>
      <trkpt lat="44.24726" lon="0.93959">
        <ele>174.4</ele>
        <time>2022-08-28T11:15:59+02:00</time>
      </trkpt>
      <trkpt lat="44.24737" lon="0.93971">
        <ele>171.2</ele>
        <time>2022-08-28T11:16:13+02:00</time>
      </trkpt>
      <trkpt lat="44.24748" lon="0.93983">
        <ele>168.1</ele>
        <time>2022-08-28T11:16:26+02:00</time>
      </trkpt>
      <trkpt lat="44.24756" lon="0.93998">
        <ele>164.8</ele>
        <time>2022-08-28T11:16:39+02:00</time>
      </trkpt>
      <trkpt lat="44.24761" lon="0.94016">
        <ele>163.7</ele>
        <time>2022-08-28T11:16:54+02:00</time>
      </trkpt>
      <trkpt lat="44.24769" lon="0.94033">
        <ele>162.7</ele>
        <time>2022-08-28T11:17:07+02:00</time>
      </trkpt>
      <trkpt lat="44.2478" lon="0.94046">
        <ele>161.6</ele>
        <time>2022-08-28T11:17:19+02:00</time>
      </trkpt>
      <trkpt lat="44.2479" lon="0.94061">
        <ele>160.6</ele>
        <time>2022-08-28T11:17:31+02:00</time>
      </trkpt>
      <trkpt lat="44.24797" lon="0.94077">
        <ele>159.7</ele>
        <time>2022-08-28T11:17:43+02:00</time>
      </trkpt>
      <trkpt lat="44.24804" lon="0.94093">
        <ele>160.2</ele>
        <time>2022-08-28T11:17:54+02:00</time>
      </trkpt>
      <trkpt lat="44.24814" lon="0.94108">
        <ele>160.9</ele>
        <time>2022-08-28T11:18:03+02:00</time>
      </trkpt>
      <trkpt lat="44.24823" lon="0.94124">
        <ele>161.6</ele>
        <time>2022-08-28T11:18:15+02:00</time>
      </trkpt>
      <trkpt lat="44.24832" lon="0.94141">
        <ele>162</ele>
        <time>2022-08-28T11:18:24+02:00</time>
      </trkpt>
      <trkpt lat="44.24837" lon="0.94158">
        <ele>162.5</ele>
        <time>2022-08-28T11:18:33+02:00</time>
      </trkpt>
      <trkpt lat="44.24847" lon="0.94172">
        <ele>161.4</ele>
        <time>2022-08-28T11:18:44+02:00</time>
      </trkpt>
      <trkpt lat="44.2486" lon="0.94173">
        <ele>158.8</ele>
        <time>2022-08-28T11:18:56+02:00</time>
      </trkpt>
      <trkpt lat="44.24875" lon="0.94168">
        <ele>156</ele>
        <time>2022-08-28T11:19:42+02:00</time>
      </trkpt>
      <trkpt lat="44.24889" lon="0.94164">
        <ele>153.2</ele>
        <time>2022-08-28T11:20:29+02:00</time>
      </trkpt>
      <trkpt lat="44.24903" lon="0.94161">
        <ele>150.3</ele>
        <time>2022-08-28T11:20:50+02:00</time>
      </trkpt>
      <trkpt lat="44.24917" lon="0.94154">
        <ele>147.4</ele>
        <time>2022-08-28T11:21:04+02:00</time>
      </trkpt>
      <trkpt lat="44.24931" lon="0.94147">
        <ele>145.8</ele>
        <time>2022-08-28T11:21:13+02:00</time>
      </trkpt>
      <trkpt lat="44.24942" lon="0.94159">
        <ele>145.3</ele>
        <time>2022-08-28T11:21:31+02:00</time>
      </trkpt>
      <trkpt lat="44.24955" lon="0.94167">
        <ele>144.4</ele>
        <time>2022-08-28T11:21:44+02:00</time>
      </trkpt>
      <trkpt lat="44.24959" lon="0.94185">
        <ele>144.1</ele>
        <time>2022-08-28T11:22:31+02:00</time>
      </trkpt>
      <trkpt lat="44.24961" lon="0.94204">
        <ele>144</ele>
        <time>2022-08-28T11:22:47+02:00</time>
      </trkpt>
      <trkpt lat="44.24959" lon="0.94223">
        <ele>144.3</ele>
        <time>2022-08-28T11:22:55+02:00</time>
      </trkpt>
      <trkpt lat="44.24954" lon="0.94241">
        <ele>144.7</ele>
        <time>2022-08-28T11:23:05+02:00</time>
      </trkpt>
      <trkpt lat="44.24948" lon="0.94259">
        <ele>145.3</ele>
        <time>2022-08-28T11:23:18+02:00</time>
      </trkpt>
      <trkpt lat="44.24943" lon="0.94277">
        <ele>145.8</ele>
        <time>2022-08-28T11:23:29+02:00</time>
      </trkpt>
      <trkpt lat="44.24938" lon="0.94296">
        <ele>146.3</ele>
        <time>2022-08-28T11:23:43+02:00</time>
      </trkpt>
      <trkpt lat="44.24941" lon="0.94315">
        <ele>146.4</ele>
        <time>2022-08-28T11:23:58+02:00</time>
      </trkpt>
      <trkpt lat="44.24946" lon="0.94333">
        <ele>146.6</ele>
        <time>2022-08-28T11:24:09+02:00</time>
      </trkpt>
      <trkpt lat="44.24949" lon="0.94353">
        <ele>146.5</ele>
        <time>2022-08-28T11:24:20+02:00</time>
      </trkpt>
      <trkpt lat="44.24948" lon="0.94373">
        <ele>146.3</ele>
        <time>2022-08-28T11:24:31+02:00</time>
      </trkpt>
      <trkpt lat="44.24949" lon="0.94392">
        <ele>146.2</ele>
        <time>2022-08-28T11:24:45+02:00</time>
      </trkpt>
      <trkpt lat="44.24952" lon="0.9441">
        <ele>146</ele>
        <time>2022-08-28T11:25:00+02:00</time>
      </trkpt>
      <trkpt lat="44.24953" lon="0.9443">
        <ele>146</ele>
        <time>2022-08-28T11:25:12+02:00</time>
      </trkpt>
      <trkpt lat="44.24958" lon="0.94468">
        <ele>146.3</ele>
        <time>2022-08-28T11:25:33+02:00</time>
      </trkpt>
      <trkpt lat="44.24956" lon="0.94505">
        <ele>146.5</ele>
        <time>2022-08-28T11:25:51+02:00</time>
      </trkpt>
      <trkpt lat="44.24949" lon="0.94521">
        <ele>146.5</ele>
        <time>2022-08-28T11:26:01+02:00</time>
      </trkpt>
      <trkpt lat="44.24941" lon="0.94537">
        <ele>146</ele>
        <time>2022-08-28T11:26:11+02:00</time>
      </trkpt>
      <trkpt lat="44.24936" lon="0.94556">
        <ele>145.7</ele>
        <time>2022-08-28T11:26:20+02:00</time>
      </trkpt>
      <trkpt lat="44.24937" lon="0.94576">
        <ele>146</ele>
        <time>2022-08-28T11:27:27+02:00</time>
      </trkpt>
      <trkpt lat="44.24938" lon="0.94595">
        <ele>146.5</ele>
        <time>2022-08-28T11:27:38+02:00</time>
      </trkpt>
      <trkpt lat="44.24935" lon="0.94614">
        <ele>146.4</ele>
        <time>2022-08-28T11:27:52+02:00</time>
      </trkpt>
      <trkpt lat="44.24937" lon="0.94633">
        <ele>147.1</ele>
        <time>2022-08-28T11:28:03+02:00</time>
      </trkpt>
      <trkpt lat="44.24941" lon="0.94652">
        <ele>148</ele>
        <time>2022-08-28T11:28:18+02:00</time>
      </trkpt>
      <trkpt lat="44.24946" lon="0.9467">
        <ele>149.4</ele>
        <time>2022-08-28T11:28:31+02:00</time>
      </trkpt>
      <trkpt lat="44.24957" lon="0.94682">
        <ele>151.5</ele>
        <time>2022-08-28T11:28:48+02:00</time>
      </trkpt>
      <trkpt lat="44.24962" lon="0.94702">
        <ele>152.7</ele>
        <time>2022-08-28T11:29:04+02:00</time>
      </trkpt>
      <trkpt lat="44.24963" lon="0.94721">
        <ele>153.3</ele>
        <time>2022-08-28T11:29:20+02:00</time>
      </trkpt>
      <trkpt lat="44.24958" lon="0.94739">
        <ele>152.7</ele>
        <time>2022-08-28T11:29:34+02:00</time>
      </trkpt>
      <trkpt lat="44.24951" lon="0.94755">
        <ele>152.1</ele>
        <time>2022-08-28T11:30:26+02:00</time>
      </trkpt>
      <trkpt lat="44.24952" lon="0.94775">
        <ele>152.9</ele>
        <time>2022-08-28T11:30:40+02:00</time>
      </trkpt>
      <trkpt lat="44.24949" lon="0.94795">
        <ele>153.3</ele>
        <time>2022-08-28T11:30:50+02:00</time>
      </trkpt>
      <trkpt lat="44.24947" lon="0.94814">
        <ele>153.6</ele>
        <time>2022-08-28T11:30:59+02:00</time>
      </trkpt>
      <trkpt lat="44.24945" lon="0.94833">
        <ele>154.1</ele>
        <time>2022-08-28T11:31:09+02:00</time>
      </trkpt>
      <trkpt lat="44.24945" lon="0.94852">
        <ele>154.4</ele>
        <time>2022-08-28T11:31:18+02:00</time>
      </trkpt>
      <trkpt lat="44.24949" lon="0.94872">
        <ele>155.2</ele>
        <time>2022-08-28T11:31:31+02:00</time>
      </trkpt>
      <trkpt lat="44.24957" lon="0.94889">
        <ele>156.9</ele>
        <time>2022-08-28T11:31:43+02:00</time>
      </trkpt>
      <trkpt lat="44.24963" lon="0.94906">
        <ele>158.3</ele>
        <time>2022-08-28T11:31:54+02:00</time>
      </trkpt>
      <trkpt lat="44.24968" lon="0.94924">
        <ele>159.2</ele>
        <time>2022-08-28T11:32:08+02:00</time>
      </trkpt>
      <trkpt lat="44.24976" lon="0.94941">
        <ele>160.5</ele>
        <time>2022-08-28T11:32:19+02:00</time>
      </trkpt>
      <trkpt lat="44.2498" lon="0.94959">
        <ele>161.1</ele>
        <time>2022-08-28T11:32:29+02:00</time>
      </trkpt>
      <trkpt lat="44.2499" lon="0.94974">
        <ele>162.6</ele>
        <time>2022-08-28T11:33:04+02:00</time>
      </trkpt>
      <trkpt lat="44.24982" lon="0.95031">
        <ele>160.8</ele>
        <time>2022-08-28T11:34:18+02:00</time>
      </trkpt>
      <trkpt lat="44.24969" lon="0.95041">
        <ele>158.7</ele>
        <time>2022-08-28T11:34:25+02:00</time>
      </trkpt>
      <trkpt lat="44.24973" lon="0.95061">
        <ele>159.3</ele>
        <time>2022-08-28T11:34:53+02:00</time>
      </trkpt>
      <trkpt lat="44.24977" lon="0.9508">
        <ele>159.9</ele>
        <time>2022-08-28T11:35:08+02:00</time>
      </trkpt>
      <trkpt lat="44.24987" lon="0.95095">
        <ele>161.4</ele>
        <time>2022-08-28T11:35:25+02:00</time>
      </trkpt>
      <trkpt lat="44.25" lon="0.95088">
        <ele>163.8</ele>
        <time>2022-08-28T11:35:37+02:00</time>
      </trkpt>
      <trkpt lat="44.2501" lon="0.95102">
        <ele>166.7</ele>
        <time>2022-08-28T11:36:01+02:00</time>
      </trkpt>
      <trkpt lat="44.25021" lon="0.95113">
        <ele>170</ele>
        <time>2022-08-28T11:36:14+02:00</time>
      </trkpt>
      <trkpt lat="44.25035" lon="0.95118">
        <ele>173.8</ele>
        <time>2022-08-28T11:36:24+02:00</time>
      </trkpt>
      <trkpt lat="44.25049" lon="0.95118">
        <ele>178.2</ele>
        <time>2022-08-28T11:36:37+02:00</time>
      </trkpt>
      <trkpt lat="44.25063" lon="0.95117">
        <ele>182.7</ele>
        <time>2022-08-28T11:36:53+02:00</time>
      </trkpt>
      <trkpt lat="44.25076" lon="0.95112">
        <ele>187</ele>
        <time>2022-08-28T11:37:06+02:00</time>
      </trkpt>
      <trkpt lat="44.2509" lon="0.95109">
        <ele>190.5</ele>
        <time>2022-08-28T11:37:23+02:00</time>
      </trkpt>
      <trkpt lat="44.25104" lon="0.95105">
        <ele>193.1</ele>
        <time>2022-08-28T11:37:52+02:00</time>
      </trkpt>
      <trkpt lat="44.25118" lon="0.95103">
        <ele>195.5</ele>
        <time>2022-08-28T11:38:01+02:00</time>
      </trkpt>
      <trkpt lat="44.25134" lon="0.95101">
        <ele>198.1</ele>
        <time>2022-08-28T11:38:07+02:00</time>
      </trkpt>
      <trkpt lat="44.25148" lon="0.95099">
        <ele>200.4</ele>
        <time>2022-08-28T11:38:14+02:00</time>
      </trkpt>
      <trkpt lat="44.25161" lon="0.95095">
        <ele>202.7</ele>
        <time>2022-08-28T11:38:23+02:00</time>
      </trkpt>
      <trkpt lat="44.25175" lon="0.9509">
        <ele>204.3</ele>
        <time>2022-08-28T11:38:30+02:00</time>
      </trkpt>
      <trkpt lat="44.25189" lon="0.95092">
        <ele>205.2</ele>
        <time>2022-08-28T11:38:42+02:00</time>
      </trkpt>
      <trkpt lat="44.25202" lon="0.95093">
        <ele>206</ele>
        <time>2022-08-28T11:38:52+02:00</time>
      </trkpt>
      <trkpt lat="44.25215" lon="0.95087">
        <ele>207.3</ele>
        <time>2022-08-28T11:39:10+02:00</time>
      </trkpt>
      <trkpt lat="44.25229" lon="0.9508">
        <ele>208.6</ele>
        <time>2022-08-28T11:39:23+02:00</time>
      </trkpt>
      <trkpt lat="44.25242" lon="0.95083">
        <ele>209.5</ele>
        <time>2022-08-28T11:41:01+02:00</time>
      </trkpt>
      <trkpt lat="44.25257" lon="0.95084">
        <ele>209.8</ele>
        <time>2022-08-28T11:41:13+02:00</time>
      </trkpt>
      <trkpt lat="44.25272" lon="0.95085">
        <ele>209.6</ele>
        <time>2022-08-28T11:41:22+02:00</time>
      </trkpt>
      <trkpt lat="44.25287" lon="0.95083">
        <ele>209.6</ele>
        <time>2022-08-28T11:41:48+02:00</time>
      </trkpt>
      <trkpt lat="44.253" lon="0.95081">
        <ele>209.6</ele>
        <time>2022-08-28T11:42:03+02:00</time>
      </trkpt>
      <trkpt lat="44.25314" lon="0.95085">
        <ele>209.1</ele>
        <time>2022-08-28T11:42:12+02:00</time>
      </trkpt>
      <trkpt lat="44.25327" lon="0.95092">
        <ele>208.6</ele>
        <time>2022-08-28T11:42:22+02:00</time>
      </trkpt>
      <trkpt lat="44.2534" lon="0.95097">
        <ele>207.6</ele>
        <time>2022-08-28T11:42:34+02:00</time>
      </trkpt>
      <trkpt lat="44.25354" lon="0.95103">
        <ele>206</ele>
        <time>2022-08-28T11:42:45+02:00</time>
      </trkpt>
      <trkpt lat="44.25367" lon="0.95109">
        <ele>204.5</ele>
        <time>2022-08-28T11:42:55+02:00</time>
      </trkpt>
      <trkpt lat="44.25381" lon="0.95116">
        <ele>202.8</ele>
        <time>2022-08-28T11:43:07+02:00</time>
      </trkpt>
      <trkpt lat="44.25396" lon="0.95118">
        <ele>201.4</ele>
        <time>2022-08-28T11:43:17+02:00</time>
      </trkpt>
      <trkpt lat="44.2541" lon="0.95126">
        <ele>199.6</ele>
        <time>2022-08-28T11:43:29+02:00</time>
      </trkpt>
      <trkpt lat="44.25424" lon="0.95129">
        <ele>198.9</ele>
        <time>2022-08-28T11:43:40+02:00</time>
      </trkpt>
      <trkpt lat="44.25437" lon="0.95124">
        <ele>199.4</ele>
        <time>2022-08-28T11:43:50+02:00</time>
      </trkpt>
      <trkpt lat="44.25451" lon="0.95118">
        <ele>200</ele>
        <time>2022-08-28T11:44:00+02:00</time>
      </trkpt>
      <trkpt lat="44.25466" lon="0.95111">
        <ele>200.4</ele>
        <time>2022-08-28T11:44:10+02:00</time>
      </trkpt>
      <trkpt lat="44.25479" lon="0.95102">
        <ele>200.8</ele>
        <time>2022-08-28T11:44:19+02:00</time>
      </trkpt>
      <trkpt lat="44.25493" lon="0.95094">
        <ele>200.9</ele>
        <time>2022-08-28T11:44:28+02:00</time>
      </trkpt>
      <trkpt lat="44.25506" lon="0.95089">
        <ele>201.2</ele>
        <time>2022-08-28T11:44:37+02:00</time>
      </trkpt>
      <trkpt lat="44.25519" lon="0.95083">
        <ele>201.9</ele>
        <time>2022-08-28T11:44:49+02:00</time>
      </trkpt>
      <trkpt lat="44.25533" lon="0.95081">
        <ele>202.7</ele>
        <time>2022-08-28T11:44:59+02:00</time>
      </trkpt>
      <trkpt lat="44.25547" lon="0.95075">
        <ele>203.4</ele>
        <time>2022-08-28T11:45:13+02:00</time>
      </trkpt>
      <trkpt lat="44.25561" lon="0.9507">
        <ele>204.2</ele>
        <time>2022-08-28T11:45:22+02:00</time>
      </trkpt>
      <trkpt lat="44.25574" lon="0.95073">
        <ele>204.7</ele>
        <time>2022-08-28T11:45:34+02:00</time>
      </trkpt>
      <trkpt lat="44.25583" lon="0.95088">
        <ele>205.1</ele>
        <time>2022-08-28T11:45:49+02:00</time>
      </trkpt>
      <trkpt lat="44.25595" lon="0.95097">
        <ele>205.9</ele>
        <time>2022-08-28T11:47:09+02:00</time>
      </trkpt>
      <trkpt lat="44.25602" lon="0.95115">
        <ele>206.7</ele>
        <time>2022-08-28T11:47:22+02:00</time>
      </trkpt>
      <trkpt lat="44.25612" lon="0.9513">
        <ele>207.5</ele>
        <time>2022-08-28T11:47:37+02:00</time>
      </trkpt>
      <trkpt lat="44.25621" lon="0.95146">
        <ele>208.3</ele>
        <time>2022-08-28T11:47:51+02:00</time>
      </trkpt>
      <trkpt lat="44.25629" lon="0.95161">
        <ele>209.1</ele>
        <time>2022-08-28T11:48:02+02:00</time>
      </trkpt>
      <trkpt lat="44.25637" lon="0.95177">
        <ele>210.1</ele>
        <time>2022-08-28T11:48:12+02:00</time>
      </trkpt>
      <trkpt lat="44.25643" lon="0.95195">
        <ele>211.5</ele>
        <time>2022-08-28T11:48:24+02:00</time>
      </trkpt>
      <trkpt lat="44.2565" lon="0.95212">
        <ele>212.8</ele>
        <time>2022-08-28T11:48:35+02:00</time>
      </trkpt>
      <trkpt lat="44.25659" lon="0.95228">
        <ele>214.3</ele>
        <time>2022-08-28T11:48:45+02:00</time>
      </trkpt>
      <trkpt lat="44.25668" lon="0.95244">
        <ele>215.7</ele>
        <time>2022-08-28T11:48:56+02:00</time>
      </trkpt>
      <trkpt lat="44.2568" lon="0.95254">
        <ele>216.7</ele>
        <time>2022-08-28T11:49:07+02:00</time>
      </trkpt>
      <trkpt lat="44.25688" lon="0.9527">
        <ele>217</ele>
        <time>2022-08-28T11:49:17+02:00</time>
      </trkpt>
      <trkpt lat="44.25701" lon="0.95281">
        <ele>217.6</ele>
        <time>2022-08-28T11:49:28+02:00</time>
      </trkpt>
      <trkpt lat="44.25711" lon="0.95294">
        <ele>218.1</ele>
        <time>2022-08-28T11:49:37+02:00</time>
      </trkpt>
      <trkpt lat="44.25723" lon="0.95303">
        <ele>218.7</ele>
        <time>2022-08-28T11:49:59+02:00</time>
      </trkpt>
      <trkpt lat="44.25734" lon="0.95316">
        <ele>219.2</ele>
        <time>2022-08-28T11:52:12+02:00</time>
      </trkpt>
      <trkpt lat="44.25746" lon="0.95326">
        <ele>219.8</ele>
        <time>2022-08-28T11:52:25+02:00</time>
      </trkpt>
      <trkpt lat="44.25758" lon="0.95336">
        <ele>220.2</ele>
        <time>2022-08-28T11:52:40+02:00</time>
      </trkpt>
      <trkpt lat="44.25771" lon="0.95342">
        <ele>220.6</ele>
        <time>2022-08-28T11:52:53+02:00</time>
      </trkpt>
      <trkpt lat="44.25784" lon="0.95351">
        <ele>221</ele>
        <time>2022-08-28T11:53:03+02:00</time>
      </trkpt>
      <trkpt lat="44.25795" lon="0.95362">
        <ele>221.3</ele>
        <time>2022-08-28T11:53:13+02:00</time>
      </trkpt>
      <trkpt lat="44.25807" lon="0.95373">
        <ele>221.8</ele>
        <time>2022-08-28T11:53:23+02:00</time>
      </trkpt>
      <trkpt lat="44.25817" lon="0.95387">
        <ele>222.2</ele>
        <time>2022-08-28T11:53:35+02:00</time>
      </trkpt>
      <trkpt lat="44.25822" lon="0.95406">
        <ele>222.3</ele>
        <time>2022-08-28T11:53:50+02:00</time>
      </trkpt>
      <trkpt lat="44.25818" lon="0.95425">
        <ele>221.9</ele>
        <time>2022-08-28T11:54:03+02:00</time>
      </trkpt>
      <trkpt lat="44.25816" lon="0.95445">
        <ele>221.3</ele>
        <time>2022-08-28T11:54:13+02:00</time>
      </trkpt>
      <trkpt lat="44.25816" lon="0.95464">
        <ele>220.8</ele>
        <time>2022-08-28T11:54:23+02:00</time>
      </trkpt>
      <trkpt lat="44.25817" lon="0.95485">
        <ele>220.4</ele>
        <time>2022-08-28T11:54:34+02:00</time>
      </trkpt>
      <trkpt lat="44.25818" lon="0.95505">
        <ele>220.1</ele>
        <time>2022-08-28T11:54:46+02:00</time>
      </trkpt>
      <trkpt lat="44.2582" lon="0.95525">
        <ele>220.2</ele>
        <time>2022-08-28T11:54:57+02:00</time>
      </trkpt>
      <trkpt lat="44.25821" lon="0.95544">
        <ele>220.3</ele>
        <time>2022-08-28T11:55:06+02:00</time>
      </trkpt>
      <trkpt lat="44.25823" lon="0.95564">
        <ele>220.4</ele>
        <time>2022-08-28T11:55:17+02:00</time>
      </trkpt>
      <trkpt lat="44.25824" lon="0.95584">
        <ele>220.4</ele>
        <time>2022-08-28T11:55:27+02:00</time>
      </trkpt>
      <trkpt lat="44.25829" lon="0.95603">
        <ele>220.8</ele>
        <time>2022-08-28T11:55:38+02:00</time>
      </trkpt>
      <trkpt lat="44.2584" lon="0.95616">
        <ele>221.2</ele>
        <time>2022-08-28T11:55:49+02:00</time>
      </trkpt>
      <trkpt lat="44.25854" lon="0.95623">
        <ele>221.5</ele>
        <time>2022-08-28T11:56:02+02:00</time>
      </trkpt>
      <trkpt lat="44.25868" lon="0.95627">
        <ele>221.8</ele>
        <time>2022-08-28T11:56:13+02:00</time>
      </trkpt>
      <trkpt lat="44.25881" lon="0.95632">
        <ele>222.1</ele>
        <time>2022-08-28T11:56:23+02:00</time>
      </trkpt>
      <trkpt lat="44.25893" lon="0.95639">
        <ele>222.4</ele>
        <time>2022-08-28T11:56:32+02:00</time>
      </trkpt>
      <trkpt lat="44.25905" lon="0.95649">
        <ele>222.7</ele>
        <time>2022-08-28T11:59:44+02:00</time>
      </trkpt>
      <trkpt lat="44.25908" lon="0.95668">
        <ele>222.8</ele>
        <time>2022-08-28T11:59:56+02:00</time>
      </trkpt>
      <trkpt lat="44.25906" lon="0.95688">
        <ele>222.4</ele>
        <time>2022-08-28T12:00:07+02:00</time>
      </trkpt>
      <trkpt lat="44.25907" lon="0.95708">
        <ele>222.2</ele>
        <time>2022-08-28T12:00:17+02:00</time>
      </trkpt>
      <trkpt lat="44.25907" lon="0.95727">
        <ele>221.9</ele>
        <time>2022-08-28T12:00:27+02:00</time>
      </trkpt>
      <trkpt lat="44.25909" lon="0.95747">
        <ele>221.7</ele>
        <time>2022-08-28T12:00:40+02:00</time>
      </trkpt>
      <trkpt lat="44.2591" lon="0.95766">
        <ele>221.6</ele>
        <time>2022-08-28T12:00:53+02:00</time>
      </trkpt>
      <trkpt lat="44.25911" lon="0.95785">
        <ele>221.6</ele>
        <time>2022-08-28T12:01:04+02:00</time>
      </trkpt>
      <trkpt lat="44.25913" lon="0.95806">
        <ele>221.7</ele>
        <time>2022-08-28T12:01:17+02:00</time>
      </trkpt>
      <trkpt lat="44.25915" lon="0.95824">
        <ele>221.9</ele>
        <time>2022-08-28T12:01:28+02:00</time>
      </trkpt>
      <trkpt lat="44.25916" lon="0.95844">
        <ele>222</ele>
        <time>2022-08-28T12:01:39+02:00</time>
      </trkpt>
      <trkpt lat="44.25916" lon="0.95864">
        <ele>222.3</ele>
        <time>2022-08-28T12:01:51+02:00</time>
      </trkpt>
      <trkpt lat="44.25917" lon="0.95883">
        <ele>222.6</ele>
        <time>2022-08-28T12:02:03+02:00</time>
      </trkpt>
      <trkpt lat="44.2592" lon="0.95904">
        <ele>223</ele>
        <time>2022-08-28T12:02:13+02:00</time>
      </trkpt>
      <trkpt lat="44.25921" lon="0.95923">
        <ele>223.2</ele>
        <time>2022-08-28T12:02:25+02:00</time>
      </trkpt>
      <trkpt lat="44.25922" lon="0.95943">
        <ele>223</ele>
        <time>2022-08-28T12:02:36+02:00</time>
      </trkpt>
      <trkpt lat="44.25924" lon="0.95962">
        <ele>223</ele>
        <time>2022-08-28T12:02:49+02:00</time>
      </trkpt>
      <trkpt lat="44.2593" lon="0.9598">
        <ele>223.2</ele>
        <time>2022-08-28T12:03:01+02:00</time>
      </trkpt>
      <trkpt lat="44.25941" lon="0.95993">
        <ele>223.8</ele>
        <time>2022-08-28T12:03:15+02:00</time>
      </trkpt>
      <trkpt lat="44.25949" lon="0.9601">
        <ele>224.1</ele>
        <time>2022-08-28T12:03:26+02:00</time>
      </trkpt>
      <trkpt lat="44.25957" lon="0.96025">
        <ele>224.4</ele>
        <time>2022-08-28T12:03:36+02:00</time>
      </trkpt>
      <trkpt lat="44.25968" lon="0.96038">
        <ele>225.1</ele>
        <time>2022-08-28T12:03:46+02:00</time>
      </trkpt>
      <trkpt lat="44.25979" lon="0.96051">
        <ele>225.7</ele>
        <time>2022-08-28T12:03:55+02:00</time>
      </trkpt>
      <trkpt lat="44.25989" lon="0.96063">
        <ele>226.3</ele>
        <time>2022-08-28T12:04:07+02:00</time>
      </trkpt>
      <trkpt lat="44.26" lon="0.96075">
        <ele>227.1</ele>
        <time>2022-08-28T12:04:18+02:00</time>
      </trkpt>
      <trkpt lat="44.26011" lon="0.96063">
        <ele>227.6</ele>
        <time>2022-08-28T12:04:29+02:00</time>
      </trkpt>
      <trkpt lat="44.26021" lon="0.96049">
        <ele>228.2</ele>
        <time>2022-08-28T12:04:40+02:00</time>
      </trkpt>
      <trkpt lat="44.2603" lon="0.96034">
        <ele>228.7</ele>
        <time>2022-08-28T12:04:56+02:00</time>
      </trkpt>
      <trkpt lat="44.26041" lon="0.96021">
        <ele>229.2</ele>
        <time>2022-08-28T12:05:07+02:00</time>
      </trkpt>
      <trkpt lat="44.26051" lon="0.96007">
        <ele>229.8</ele>
        <time>2022-08-28T12:05:18+02:00</time>
      </trkpt>
      <trkpt lat="44.26061" lon="0.95993">
        <ele>230.1</ele>
        <time>2022-08-28T12:05:30+02:00</time>
      </trkpt>
      <trkpt lat="44.26073" lon="0.95982">
        <ele>230.4</ele>
        <time>2022-08-28T12:06:20+02:00</time>
      </trkpt>
      <trkpt lat="44.26085" lon="0.95971">
        <ele>230.6</ele>
        <time>2022-08-28T12:06:31+02:00</time>
      </trkpt>
      <trkpt lat="44.26104" lon="0.95944">
        <ele>230.2</ele>
        <time>2022-08-28T12:06:53+02:00</time>
      </trkpt>
      <trkpt lat="44.26116" lon="0.95932">
        <ele>230.1</ele>
        <time>2022-08-28T12:07:05+02:00</time>
      </trkpt>
      <trkpt lat="44.26129" lon="0.95923">
        <ele>230</ele>
        <time>2022-08-28T12:07:14+02:00</time>
      </trkpt>
      <trkpt lat="44.2614" lon="0.9591">
        <ele>229.7</ele>
        <time>2022-08-28T12:07:26+02:00</time>
      </trkpt>
      <trkpt lat="44.26149" lon="0.95894">
        <ele>229.1</ele>
        <time>2022-08-28T12:07:39+02:00</time>
      </trkpt>
      <trkpt lat="44.26159" lon="0.9588">
        <ele>228.4</ele>
        <time>2022-08-28T12:07:52+02:00</time>
      </trkpt>
      <trkpt lat="44.2617" lon="0.95868">
        <ele>227.7</ele>
        <time>2022-08-28T12:08:04+02:00</time>
      </trkpt>
      <trkpt lat="44.2618" lon="0.95855">
        <ele>227.5</ele>
        <time>2022-08-28T12:08:12+02:00</time>
      </trkpt>
      <trkpt lat="44.26191" lon="0.95844">
        <ele>227.5</ele>
        <time>2022-08-28T12:08:21+02:00</time>
      </trkpt>
      <trkpt lat="44.26202" lon="0.95831">
        <ele>227.6</ele>
        <time>2022-08-28T12:08:31+02:00</time>
      </trkpt>
    </trkseg>
  </trk>
</gpx>